PWSweather.com
Personal Weather Stations
Station Observations
EI4HQ
Cork Harbour, CobhIE

Cork HarbourCobhIE

Lat: 51.85, Lon: -8.29

Elevation: 252

Station Type: Davis Vantage Pro2

http://www.corkharbourweather.ie

High Low Average
Temperature 51.1°F10.6°C 45.3°F7.4°C 48.7°F9.3°C
Dew Point 49.8°F9.9°C 42.3°F5.7°C 46.8°F8.2°C
Winds 46.0 mph 74.0 kmh 5.0 mph 8.0 kmh 25.0 mph S40.2 kmh S
Wind Gusts 60.0 mph96.6 kmh 10.0 mph16.1 kmh 38.0 mph61.2 kmh
Humidity 100% 88% 93%
Pressure 29.62 in1003.0 mb 29.40 in995.6 mb -
Precipitation 0.69 in17.5 mm - -
Hour Temp Dew Point Humidity Winds Wind Gusts Pressure Precip Precip Rate Daily Precip Total
12:00 AM 46.6°F8.1°C 44.8°F7.1°C 94% 8.0 mph SW12.9 kmh SW 15.0 mph24.1 kmh 29.58 in1001.7 mb 0.00 in0.0 mm 0.00 in0.0 mm 0.00 in0.0 mm
12:03 AM 46.6°F8.1°C 44.8°F7.1°C 94% 8.0 mph SW12.9 kmh SW 16.0 mph25.7 kmh 29.58 in1001.7 mb 0.00 in0.0 mm 0.00 in0.0 mm 0.00 in0.0 mm
12:06 AM 46.6°F8.1°C 44.8°F7.1°C 94% 8.0 mph SW12.9 kmh SW 16.0 mph25.7 kmh 29.58 in1001.7 mb 0.00 in0.0 mm 0.00 in0.0 mm 0.00 in0.0 mm
12:09 AM 46.6°F8.1°C 44.8°F7.1°C 94% 8.0 mph SW12.9 kmh SW 16.0 mph25.7 kmh 29.58 in1001.7 mb 0.00 in0.0 mm 0.00 in0.0 mm 0.00 in0.0 mm
12:12 AM 46.6°F8.1°C 44.8°F7.1°C 94% 8.0 mph SW12.9 kmh SW 16.0 mph25.7 kmh 29.58 in1001.7 mb 0.00 in0.0 mm 0.00 in0.0 mm 0.00 in0.0 mm
12:15 AM 46.6°F8.1°C 45.0°F7.2°C 94% 8.0 mph SW12.9 kmh SW 16.0 mph25.7 kmh 29.58 in1001.7 mb 0.00 in0.0 mm 0.00 in0.0 mm 0.00 in0.0 mm
12:18 AM 46.6°F8.1°C 45.0°F7.2°C 94% 8.0 mph SW12.9 kmh SW 15.0 mph24.1 kmh 29.59 in1002.0 mb 0.00 in0.0 mm 0.00 in0.0 mm 0.00 in0.0 mm
12:21 AM 46.6°F8.1°C 44.6°F7.0°C 93% 8.0 mph SW12.9 kmh SW 16.0 mph25.7 kmh 29.59 in1002.0 mb 0.00 in0.0 mm 0.00 in0.0 mm 0.00 in0.0 mm
12:24 AM 46.6°F8.1°C 44.6°F7.0°C 93% 8.0 mph SW12.9 kmh SW 16.0 mph25.7 kmh 29.59 in1002.0 mb 0.00 in0.0 mm 0.00 in0.0 mm 0.00 in0.0 mm
12:27 AM 46.6°F8.1°C 44.6°F7.0°C 93% 8.0 mph SW12.9 kmh SW 16.0 mph25.7 kmh 29.59 in1002.0 mb 0.00 in0.0 mm 0.00 in0.0 mm 0.00 in0.0 mm
12:30 AM 46.6°F8.1°C 44.6°F7.0°C 93% 8.0 mph SW12.9 kmh SW 16.0 mph25.7 kmh 29.59 in1002.0 mb 0.00 in0.0 mm 0.00 in0.0 mm 0.00 in0.0 mm
12:33 AM 46.6°F8.1°C 44.6°F7.0°C 93% 8.0 mph SW12.9 kmh SW 15.0 mph24.1 kmh 29.59 in1002.0 mb 0.00 in0.0 mm 0.00 in0.0 mm 0.00 in0.0 mm
12:36 AM 46.6°F8.1°C 44.6°F7.0°C 93% 8.0 mph SW12.9 kmh SW 16.0 mph25.7 kmh 29.59 in1002.0 mb 0.00 in0.0 mm 0.00 in0.0 mm 0.00 in0.0 mm
12:39 AM 46.6°F8.1°C 44.6°F7.0°C 93% 10.0 mph SW16.1 kmh SW 22.0 mph35.4 kmh 29.59 in1002.0 mb 0.00 in0.0 mm 0.00 in0.0 mm 0.00 in0.0 mm
12:42 AM 46.6°F8.1°C 44.6°F7.0°C 93% 10.0 mph SW16.1 kmh SW 22.0 mph35.4 kmh 29.59 in1002.0 mb 0.00 in0.0 mm 0.00 in0.0 mm 0.00 in0.0 mm
12:45 AM 46.6°F8.1°C 44.4°F6.9°C 92% 11.0 mph SW17.7 kmh SW 22.0 mph35.4 kmh 29.59 in1002.0 mb 0.00 in0.0 mm 0.00 in0.0 mm 0.00 in0.0 mm
12:48 AM 46.6°F8.1°C 44.2°F6.8°C 92% 10.0 mph SW16.1 kmh SW 20.0 mph32.2 kmh 29.59 in1002.0 mb 0.00 in0.0 mm 0.00 in0.0 mm 0.00 in0.0 mm
12:51 AM 46.4°F8.0°C 44.2°F6.8°C 92% 10.0 mph SW16.1 kmh SW 20.0 mph32.2 kmh 29.59 in1002.0 mb 0.00 in0.0 mm 0.00 in0.0 mm 0.00 in0.0 mm
12:54 AM 46.4°F8.0°C 43.9°F6.6°C 91% 10.0 mph SW16.1 kmh SW 22.0 mph35.4 kmh 29.59 in1002.0 mb 0.00 in0.0 mm 0.00 in0.0 mm 0.00 in0.0 mm
12:57 AM 46.4°F8.0°C 43.9°F6.6°C 91% 10.0 mph SW16.1 kmh SW 22.0 mph35.4 kmh 29.59 in1002.0 mb 0.00 in0.0 mm 0.00 in0.0 mm 0.00 in0.0 mm
01:00 AM 46.2°F7.9°C 43.9°F6.6°C 91% 9.0 mph SW14.5 kmh SW 22.0 mph35.4 kmh 29.59 in1002.0 mb 0.00 in0.0 mm 0.00 in0.0 mm 0.00 in0.0 mm
01:03 AM 46.2°F7.9°C 43.9°F6.6°C 91% 9.0 mph SW14.5 kmh SW 22.0 mph35.4 kmh 29.59 in1002.0 mb 0.00 in0.0 mm 0.00 in0.0 mm 0.00 in0.0 mm
01:06 AM 46.2°F7.9°C 43.9°F6.6°C 91% 8.0 mph SW12.9 kmh SW 17.0 mph27.4 kmh 29.59 in1002.0 mb 0.00 in0.0 mm 0.00 in0.0 mm 0.00 in0.0 mm
01:09 AM 46.2°F7.9°C 43.9°F6.6°C 91% 8.0 mph SW12.9 kmh SW 17.0 mph27.4 kmh 29.59 in1002.0 mb 0.00 in0.0 mm 0.00 in0.0 mm 0.00 in0.0 mm
01:12 AM 46.2°F7.9°C 43.3°F6.3°C 90% 8.0 mph SW12.9 kmh SW 17.0 mph27.4 kmh 29.59 in1002.0 mb 0.00 in0.0 mm 0.00 in0.0 mm 0.00 in0.0 mm
01:15 AM 46.2°F7.9°C 43.3°F6.3°C 90% 9.0 mph SW14.5 kmh SW 17.0 mph27.4 kmh 29.60 in1002.4 mb 0.00 in0.0 mm 0.00 in0.0 mm 0.00 in0.0 mm
01:18 AM 46.0°F7.8°C 43.3°F6.3°C 90% 9.0 mph SW14.5 kmh SW 16.0 mph25.7 kmh 29.60 in1002.4 mb 0.00 in0.0 mm 0.00 in0.0 mm 0.00 in0.0 mm
01:21 AM 46.0°F7.8°C 43.7°F6.5°C 91% 8.0 mph SW12.9 kmh SW 16.0 mph25.7 kmh 29.60 in1002.4 mb 0.00 in0.0 mm 0.00 in0.0 mm 0.00 in0.0 mm
01:24 AM 46.0°F7.8°C 43.5°F6.4°C 91% 7.0 mph SW11.3 kmh SW 16.0 mph25.7 kmh 29.60 in1002.4 mb 0.00 in0.0 mm 0.00 in0.0 mm 0.00 in0.0 mm
01:27 AM 46.0°F7.8°C 43.2°F6.2°C 90% 6.0 mph SW9.7 kmh SW 13.0 mph20.9 kmh 29.60 in1002.4 mb 0.00 in0.0 mm 0.00 in0.0 mm 0.00 in0.0 mm
01:30 AM 45.9°F7.7°C 43.3°F6.3°C 91% 6.0 mph SW9.7 kmh SW 13.0 mph20.9 kmh 29.60 in1002.4 mb 0.00 in0.0 mm 0.00 in0.0 mm 0.00 in0.0 mm
01:33 AM 45.9°F7.7°C 43.3°F6.3°C 91% 6.0 mph SSW9.7 kmh SSW 13.0 mph20.9 kmh 29.60 in1002.4 mb 0.00 in0.0 mm 0.00 in0.0 mm 0.00 in0.0 mm
01:36 AM 45.7°F7.6°C 43.2°F6.2°C 91% 6.0 mph SSW9.7 kmh SSW 13.0 mph20.9 kmh 29.60 in1002.4 mb 0.00 in0.0 mm 0.00 in0.0 mm 0.00 in0.0 mm
01:39 AM 45.7°F7.6°C 43.2°F6.2°C 91% 5.0 mph SSW8.0 kmh SSW 10.0 mph16.1 kmh 29.60 in1002.4 mb 0.00 in0.0 mm 0.00 in0.0 mm 0.00 in0.0 mm
01:42 AM 45.7°F7.6°C 43.2°F6.2°C 91% 5.0 mph SSW8.0 kmh SSW 11.0 mph17.7 kmh 29.60 in1002.4 mb 0.00 in0.0 mm 0.00 in0.0 mm 0.00 in0.0 mm
01:45 AM 45.7°F7.6°C 43.2°F6.2°C 91% 6.0 mph SW9.7 kmh SW 12.0 mph19.3 kmh 29.60 in1002.4 mb 0.00 in0.0 mm 0.00 in0.0 mm 0.00 in0.0 mm
01:48 AM 45.5°F7.5°C 43.0°F6.1°C 91% 5.0 mph SW8.0 kmh SW 12.0 mph19.3 kmh 29.60 in1002.4 mb 0.00 in0.0 mm 0.00 in0.0 mm 0.00 in0.0 mm
01:51 AM 45.5°F7.5°C 43.0°F6.1°C 91% 5.0 mph SSW8.0 kmh SSW 12.0 mph19.3 kmh 29.60 in1002.4 mb 0.00 in0.0 mm 0.00 in0.0 mm 0.00 in0.0 mm
01:54 AM 45.3°F7.4°C 43.0°F6.1°C 91% 6.0 mph SSW9.7 kmh SSW 12.0 mph19.3 kmh 29.60 in1002.4 mb 0.00 in0.0 mm 0.00 in0.0 mm 0.00 in0.0 mm
01:57 AM 45.3°F7.4°C 42.8°F6.0°C 91% 6.0 mph SSW9.7 kmh SSW 12.0 mph19.3 kmh 29.60 in1002.4 mb 0.00 in0.0 mm 0.00 in0.0 mm 0.00 in0.0 mm
02:00 AM 45.3°F7.4°C 42.8°F6.0°C 91% 6.0 mph SSW9.7 kmh SSW 14.0 mph22.5 kmh 29.61 in1002.7 mb 0.00 in0.0 mm 0.00 in0.0 mm 0.00 in0.0 mm
02:03 AM 45.3°F7.4°C 43.2°F6.2°C 92% 6.0 mph SSW9.7 kmh SSW 14.0 mph22.5 kmh 29.61 in1002.7 mb 0.00 in0.0 mm 0.00 in0.0 mm 0.00 in0.0 mm
02:06 AM 45.3°F7.4°C 43.2°F6.2°C 92% 7.0 mph SSW11.3 kmh SSW 15.0 mph24.1 kmh 29.61 in1002.7 mb 0.00 in0.0 mm 0.00 in0.0 mm 0.00 in0.0 mm
02:09 AM 45.5°F7.5°C 43.3°F6.3°C 92% 7.0 mph SSW11.3 kmh SSW 15.0 mph24.1 kmh 29.61 in1002.7 mb 0.00 in0.0 mm 0.00 in0.0 mm 0.00 in0.0 mm
02:12 AM 45.7°F7.6°C 43.3°F6.3°C 92% 7.0 mph SSW11.3 kmh SSW 15.0 mph24.1 kmh 29.61 in1002.7 mb 0.00 in0.0 mm 0.00 in0.0 mm 0.00 in0.0 mm
02:15 AM 45.7°F7.6°C 43.5°F6.4°C 92% 7.0 mph SSW11.3 kmh SSW 14.0 mph22.5 kmh 29.61 in1002.7 mb 0.00 in0.0 mm 0.00 in0.0 mm 0.00 in0.0 mm
02:18 AM 45.7°F7.6°C 43.2°F6.2°C 91% 7.0 mph SSW11.3 kmh SSW 14.0 mph22.5 kmh 29.61 in1002.7 mb 0.00 in0.0 mm 0.00 in0.0 mm 0.00 in0.0 mm
02:21 AM 45.7°F7.6°C 43.2°F6.2°C 91% 6.0 mph SSW9.7 kmh SSW 14.0 mph22.5 kmh 29.60 in1002.4 mb 0.00 in0.0 mm 0.00 in0.0 mm 0.00 in0.0 mm
02:24 AM 45.7°F7.6°C 43.2°F6.2°C 91% 6.0 mph SSW9.7 kmh SSW 14.0 mph22.5 kmh 29.61 in1002.7 mb 0.00 in0.0 mm 0.00 in0.0 mm 0.00 in0.0 mm
02:27 AM 45.5°F7.5°C 42.8°F6.0°C 90% 5.0 mph SW8.0 kmh SW 14.0 mph22.5 kmh 29.61 in1002.7 mb 0.00 in0.0 mm 0.00 in0.0 mm 0.00 in0.0 mm
02:30 AM 45.5°F7.5°C 42.8°F6.0°C 90% 5.0 mph SW8.0 kmh SW 14.0 mph22.5 kmh 29.61 in1002.7 mb 0.00 in0.0 mm 0.00 in0.0 mm 0.00 in0.0 mm
02:33 AM 45.3°F7.4°C 42.6°F5.9°C 90% 5.0 mph SW8.0 kmh SW 14.0 mph22.5 kmh 29.61 in1002.7 mb 0.00 in0.0 mm 0.00 in0.0 mm 0.00 in0.0 mm
02:36 AM 45.3°F7.4°C 42.6°F5.9°C 90% 5.0 mph SW8.0 kmh SW 12.0 mph19.3 kmh 29.61 in1002.7 mb 0.00 in0.0 mm 0.00 in0.0 mm 0.00 in0.0 mm
02:39 AM 45.3°F7.4°C 42.6°F5.9°C 90% 6.0 mph SW9.7 kmh SW 12.0 mph19.3 kmh 29.61 in1002.7 mb 0.00 in0.0 mm 0.00 in0.0 mm 0.00 in0.0 mm
02:42 AM 45.3°F7.4°C 42.6°F5.9°C 90% 6.0 mph SSW9.7 kmh SSW 12.0 mph19.3 kmh 29.61 in1002.7 mb 0.00 in0.0 mm 0.00 in0.0 mm 0.00 in0.0 mm
02:45 AM 45.5°F7.5°C 42.8°F6.0°C 90% 6.0 mph SSW9.7 kmh SSW 11.0 mph17.7 kmh 29.61 in1002.7 mb 0.00 in0.0 mm 0.00 in0.0 mm 0.00 in0.0 mm
02:48 AM 45.5°F7.5°C 42.8°F6.0°C 90% 6.0 mph S9.7 kmh S 11.0 mph17.7 kmh 29.61 in1002.7 mb 0.00 in0.0 mm 0.00 in0.0 mm 0.00 in0.0 mm
02:51 AM 45.5°F7.5°C 42.8°F6.0°C 90% 6.0 mph S9.7 kmh S 11.0 mph17.7 kmh 29.61 in1002.7 mb 0.00 in0.0 mm 0.00 in0.0 mm 0.00 in0.0 mm
02:54 AM 45.5°F7.5°C 42.8°F6.0°C 90% 6.0 mph S9.7 kmh S 12.0 mph19.3 kmh 29.61 in1002.7 mb 0.00 in0.0 mm 0.00 in0.0 mm 0.00 in0.0 mm
02:57 AM 45.7°F7.6°C 42.8°F6.0°C 90% 7.0 mph S11.3 kmh S 13.0 mph20.9 kmh 29.61 in1002.7 mb 0.00 in0.0 mm 0.00 in0.0 mm 0.00 in0.0 mm
03:00 AM 45.5°F7.5°C 42.8°F6.0°C 90% 8.0 mph S12.9 kmh S 13.0 mph20.9 kmh 29.60 in1002.4 mb 0.00 in0.0 mm 0.00 in0.0 mm 0.00 in0.0 mm
03:03 AM 45.5°F7.5°C 42.8°F6.0°C 90% 8.0 mph S12.9 kmh S 13.0 mph20.9 kmh 29.60 in1002.4 mb 0.00 in0.0 mm 0.00 in0.0 mm 0.00 in0.0 mm
03:06 AM 45.3°F7.4°C 42.6°F5.9°C 90% 8.0 mph S12.9 kmh S 14.0 mph22.5 kmh 29.60 in1002.4 mb 0.00 in0.0 mm 0.00 in0.0 mm 0.00 in0.0 mm
03:09 AM 45.3°F7.4°C 42.6°F5.9°C 90% 8.0 mph S12.9 kmh S 14.0 mph22.5 kmh 29.60 in1002.4 mb 0.00 in0.0 mm 0.00 in0.0 mm 0.00 in0.0 mm
03:12 AM 45.3°F7.4°C 42.6°F5.9°C 90% 8.0 mph S12.9 kmh S 14.0 mph22.5 kmh 29.60 in1002.4 mb 0.00 in0.0 mm 0.00 in0.0 mm 0.00 in0.0 mm
03:15 AM 45.3°F7.4°C 42.6°F5.9°C 90% 8.0 mph S12.9 kmh S 14.0 mph22.5 kmh 29.60 in1002.4 mb 0.00 in0.0 mm 0.00 in0.0 mm 0.00 in0.0 mm
03:18 AM 45.3°F7.4°C 42.6°F5.9°C 90% 8.0 mph S12.9 kmh S 12.0 mph19.3 kmh 29.60 in1002.4 mb 0.00 in0.0 mm 0.00 in0.0 mm 0.00 in0.0 mm
03:21 AM 45.3°F7.4°C 42.6°F5.9°C 90% 8.0 mph S12.9 kmh S 13.0 mph20.9 kmh 29.60 in1002.4 mb 0.00 in0.0 mm 0.00 in0.0 mm 0.00 in0.0 mm
03:24 AM 45.3°F7.4°C 42.6°F5.9°C 90% 8.0 mph S12.9 kmh S 15.0 mph24.1 kmh 29.61 in1002.7 mb 0.00 in0.0 mm 0.00 in0.0 mm 0.00 in0.0 mm
03:27 AM 45.3°F7.4°C 42.6°F5.9°C 90% 9.0 mph S14.5 kmh S 15.0 mph24.1 kmh 29.61 in1002.7 mb 0.00 in0.0 mm 0.00 in0.0 mm 0.00 in0.0 mm
03:30 AM 45.3°F7.4°C 42.3°F5.7°C 89% 9.0 mph S14.5 kmh S 15.0 mph24.1 kmh 29.61 in1002.7 mb 0.00 in0.0 mm 0.00 in0.0 mm 0.00 in0.0 mm
03:33 AM 45.3°F7.4°C 42.3°F5.7°C 89% 9.0 mph S14.5 kmh S 18.0 mph29.0 kmh 29.61 in1002.7 mb 0.00 in0.0 mm 0.00 in0.0 mm 0.00 in0.0 mm
03:36 AM 45.3°F7.4°C 42.3°F5.7°C 89% 10.0 mph S16.1 kmh S 18.0 mph29.0 kmh 29.61 in1002.7 mb 0.00 in0.0 mm 0.00 in0.0 mm 0.00 in0.0 mm
03:39 AM 45.3°F7.4°C 42.3°F5.7°C 89% 10.0 mph S16.1 kmh S 18.0 mph29.0 kmh 29.61 in1002.7 mb 0.00 in0.0 mm 0.00 in0.0 mm 0.00 in0.0 mm
03:42 AM 45.3°F7.4°C 42.3°F5.7°C 89% 11.0 mph S17.7 kmh S 18.0 mph29.0 kmh 29.61 in1002.7 mb 0.00 in0.0 mm 0.00 in0.0 mm 0.00 in0.0 mm
03:45 AM 45.3°F7.4°C 42.3°F5.7°C 89% 11.0 mph S17.7 kmh S 18.0 mph29.0 kmh 29.61 in1002.7 mb 0.00 in0.0 mm 0.00 in0.0 mm 0.00 in0.0 mm
03:48 AM 45.5°F7.5°C 42.4°F5.8°C 89% 11.0 mph S17.7 kmh S 16.0 mph25.7 kmh 29.61 in1002.7 mb 0.00 in0.0 mm 0.00 in0.0 mm 0.00 in0.0 mm
03:51 AM 45.7°F7.6°C 42.6°F5.9°C 89% 12.0 mph S19.3 kmh S 17.0 mph27.4 kmh 29.61 in1002.7 mb 0.00 in0.0 mm 0.00 in0.0 mm 0.00 in0.0 mm
03:54 AM 45.7°F7.6°C 42.6°F5.9°C 89% 12.0 mph S19.3 kmh S 17.0 mph27.4 kmh 29.61 in1002.7 mb 0.00 in0.0 mm 0.00 in0.0 mm 0.00 in0.0 mm
03:57 AM 45.9°F7.7°C 43.2°F6.2°C 90% 12.0 mph S19.3 kmh S 17.0 mph27.4 kmh 29.61 in1002.7 mb 0.00 in0.0 mm 0.00 in0.0 mm 0.00 in0.0 mm
04:00 AM 46.0°F7.8°C 43.3°F6.3°C 90% 12.0 mph S19.3 kmh S 18.0 mph29.0 kmh 29.61 in1002.7 mb 0.00 in0.0 mm 0.00 in0.0 mm 0.00 in0.0 mm
04:03 AM 46.2°F7.9°C 43.3°F6.3°C 90% 12.0 mph S19.3 kmh S 18.0 mph29.0 kmh 29.61 in1002.7 mb 0.00 in0.0 mm 0.00 in0.0 mm 0.00 in0.0 mm
04:06 AM 46.2°F7.9°C 43.5°F6.4°C 90% 13.0 mph S20.9 kmh S 21.0 mph33.8 kmh 29.61 in1002.7 mb 0.00 in0.0 mm 0.00 in0.0 mm 0.00 in0.0 mm
04:09 AM 46.4°F8.0°C 43.7°F6.5°C 90% 12.0 mph S19.3 kmh S 21.0 mph33.8 kmh 29.61 in1002.7 mb 0.00 in0.0 mm 0.00 in0.0 mm 0.00 in0.0 mm
04:12 AM 46.4°F8.0°C 43.7°F6.5°C 90% 12.0 mph S19.3 kmh S 21.0 mph33.8 kmh 29.61 in1002.7 mb 0.00 in0.0 mm 0.00 in0.0 mm 0.00 in0.0 mm
04:15 AM 46.4°F8.0°C 43.7°F6.5°C 90% 12.0 mph S19.3 kmh S 21.0 mph33.8 kmh 29.61 in1002.7 mb 0.00 in0.0 mm 0.00 in0.0 mm 0.00 in0.0 mm
04:18 AM 46.2°F7.9°C 43.5°F6.4°C 90% 11.0 mph S17.7 kmh S 19.0 mph30.6 kmh 29.61 in1002.7 mb 0.00 in0.0 mm 0.00 in0.0 mm 0.00 in0.0 mm
04:21 AM 46.2°F7.9°C 43.3°F6.3°C 90% 11.0 mph S17.7 kmh S 19.0 mph30.6 kmh 29.61 in1002.7 mb 0.00 in0.0 mm 0.00 in0.0 mm 0.00 in0.0 mm
04:24 AM 46.0°F7.8°C 43.3°F6.3°C 90% 10.0 mph S16.1 kmh S 16.0 mph25.7 kmh 29.61 in1002.7 mb 0.00 in0.0 mm 0.00 in0.0 mm 0.00 in0.0 mm
04:27 AM 46.0°F7.8°C 43.2°F6.2°C 90% 10.0 mph S16.1 kmh S 16.0 mph25.7 kmh 29.61 in1002.7 mb 0.00 in0.0 mm 0.00 in0.0 mm 0.00 in0.0 mm
04:30 AM 46.0°F7.8°C 43.2°F6.2°C 90% 10.0 mph S16.1 kmh S 16.0 mph25.7 kmh 29.61 in1002.7 mb 0.00 in0.0 mm 0.00 in0.0 mm 0.00 in0.0 mm
04:33 AM 45.9°F7.7°C 43.2°F6.2°C 90% 10.0 mph S16.1 kmh S 16.0 mph25.7 kmh 29.61 in1002.7 mb 0.00 in0.0 mm 0.00 in0.0 mm 0.00 in0.0 mm
04:36 AM 45.9°F7.7°C 43.2°F6.2°C 90% 11.0 mph S17.7 kmh S 16.0 mph25.7 kmh 29.61 in1002.7 mb 0.00 in0.0 mm 0.00 in0.0 mm 0.00 in0.0 mm
04:39 AM 45.9°F7.7°C 43.2°F6.2°C 90% 11.0 mph S17.7 kmh S 18.0 mph29.0 kmh 29.61 in1002.7 mb 0.00 in0.0 mm 0.00 in0.0 mm 0.00 in0.0 mm
04:42 AM 46.0°F7.8°C 43.2°F6.2°C 90% 12.0 mph S19.3 kmh S 20.0 mph32.2 kmh 29.61 in1002.7 mb 0.00 in0.0 mm 0.00 in0.0 mm 0.00 in0.0 mm
04:45 AM 46.0°F7.8°C 43.5°F6.4°C 91% 13.0 mph S20.9 kmh S 21.0 mph33.8 kmh 29.61 in1002.7 mb 0.00 in0.0 mm 0.00 in0.0 mm 0.00 in0.0 mm
04:48 AM 46.0°F7.8°C 43.7°F6.5°C 91% 13.0 mph S20.9 kmh S 21.0 mph33.8 kmh 29.61 in1002.7 mb 0.00 in0.0 mm 0.00 in0.0 mm 0.00 in0.0 mm
04:51 AM 46.2°F7.9°C 43.7°F6.5°C 91% 13.0 mph S20.9 kmh S 21.0 mph33.8 kmh 29.61 in1002.7 mb 0.00 in0.0 mm 0.00 in0.0 mm 0.00 in0.0 mm
04:54 AM 46.2°F7.9°C 43.7°F6.5°C 91% 13.0 mph S20.9 kmh S 21.0 mph33.8 kmh 29.61 in1002.7 mb 0.00 in0.0 mm 0.00 in0.0 mm 0.00 in0.0 mm
04:57 AM 46.2°F7.9°C 43.7°F6.5°C 91% 14.0 mph S22.5 kmh S 21.0 mph33.8 kmh 29.61 in1002.7 mb 0.00 in0.0 mm 0.00 in0.0 mm 0.00 in0.0 mm
05:00 AM 46.2°F7.9°C 43.7°F6.5°C 91% 15.0 mph S24.1 kmh S 21.0 mph33.8 kmh 29.61 in1002.7 mb 0.00 in0.0 mm 0.00 in0.0 mm 0.00 in0.0 mm
05:03 AM 46.2°F7.9°C 43.9°F6.6°C 91% 15.0 mph S24.1 kmh S 25.0 mph40.2 kmh 29.61 in1002.7 mb 0.00 in0.0 mm 0.00 in0.0 mm 0.00 in0.0 mm
05:06 AM 46.4°F8.0°C 43.9°F6.6°C 91% 15.0 mph S24.1 kmh S 25.0 mph40.2 kmh 29.61 in1002.7 mb 0.00 in0.0 mm 0.00 in0.0 mm 0.00 in0.0 mm
05:09 AM 46.4°F8.0°C 43.9°F6.6°C 91% 16.0 mph S25.7 kmh S 28.0 mph45.1 kmh 29.61 in1002.7 mb 0.00 in0.0 mm 0.00 in0.0 mm 0.00 in0.0 mm
05:12 AM 46.6°F8.1°C 44.1°F6.7°C 91% 17.0 mph S27.4 kmh S 28.0 mph45.1 kmh 29.61 in1002.7 mb 0.00 in0.0 mm 0.00 in0.0 mm 0.00 in0.0 mm
05:15 AM 46.6°F8.1°C 44.1°F6.7°C 91% 17.0 mph S27.4 kmh S 28.0 mph45.1 kmh 29.61 in1002.7 mb 0.00 in0.0 mm 0.00 in0.0 mm 0.00 in0.0 mm
05:18 AM 46.6°F8.1°C 44.1°F6.7°C 91% 17.0 mph S27.4 kmh S 29.0 mph46.7 kmh 29.60 in1002.4 mb 0.00 in0.0 mm 0.00 in0.0 mm 0.00 in0.0 mm
05:21 AM 46.6°F8.1°C 44.1°F6.7°C 91% 17.0 mph S27.4 kmh S 29.0 mph46.7 kmh 29.61 in1002.7 mb 0.00 in0.0 mm 0.00 in0.0 mm 0.00 in0.0 mm
05:24 AM 46.6°F8.1°C 44.1°F6.7°C 91% 15.0 mph S24.1 kmh S 29.0 mph46.7 kmh 29.61 in1002.7 mb 0.00 in0.0 mm 0.00 in0.0 mm 0.00 in0.0 mm
05:27 AM 46.6°F8.1°C 44.1°F6.7°C 91% 15.0 mph S24.1 kmh S 29.0 mph46.7 kmh 29.61 in1002.7 mb 0.00 in0.0 mm 0.00 in0.0 mm 0.00 in0.0 mm
05:30 AM 46.6°F8.1°C 44.1°F6.7°C 91% 15.0 mph S24.1 kmh S 28.0 mph45.1 kmh 29.61 in1002.7 mb 0.00 in0.0 mm 0.00 in0.0 mm 0.00 in0.0 mm
05:33 AM 46.8°F8.2°C 44.2°F6.8°C 91% 16.0 mph S25.7 kmh S 28.0 mph45.1 kmh 29.61 in1002.7 mb 0.00 in0.0 mm 0.00 in0.0 mm 0.00 in0.0 mm
05:36 AM 46.8°F8.2°C 44.1°F6.7°C 90% 17.0 mph S27.4 kmh S 28.0 mph45.1 kmh 29.61 in1002.7 mb 0.00 in0.0 mm 0.00 in0.0 mm 0.00 in0.0 mm
05:39 AM 46.8°F8.2°C 44.1°F6.7°C 90% 17.0 mph S27.4 kmh S 27.0 mph43.5 kmh 29.61 in1002.7 mb 0.00 in0.0 mm 0.00 in0.0 mm 0.00 in0.0 mm
05:42 AM 46.9°F8.3°C 44.1°F6.7°C 90% 18.0 mph S29.0 kmh S 27.0 mph43.5 kmh 29.61 in1002.7 mb 0.00 in0.0 mm 0.00 in0.0 mm 0.00 in0.0 mm
05:45 AM 46.9°F8.3°C 44.2°F6.8°C 90% 18.0 mph S29.0 kmh S 27.0 mph43.5 kmh 29.61 in1002.7 mb 0.00 in0.0 mm 0.00 in0.0 mm 0.00 in0.0 mm
05:48 AM 47.1°F8.4°C 44.2°F6.8°C 90% 18.0 mph S29.0 kmh S 27.0 mph43.5 kmh 29.61 in1002.7 mb 0.00 in0.0 mm 0.00 in0.0 mm 0.00 in0.0 mm
05:51 AM 47.1°F8.4°C 44.2°F6.8°C 90% 17.0 mph S27.4 kmh S 27.0 mph43.5 kmh 29.61 in1002.7 mb 0.00 in0.0 mm 0.00 in0.0 mm 0.00 in0.0 mm
05:54 AM 47.1°F8.4°C 44.4°F6.9°C 90% 16.0 mph S25.7 kmh S 24.0 mph38.6 kmh 29.61 in1002.7 mb 0.00 in0.0 mm 0.00 in0.0 mm 0.00 in0.0 mm
05:57 AM 47.3°F8.5°C 44.6°F7.0°C 90% 17.0 mph S27.4 kmh S 27.0 mph43.5 kmh 29.61 in1002.7 mb 0.00 in0.0 mm 0.00 in0.0 mm 0.00 in0.0 mm
06:00 AM 47.5°F8.6°C 44.6°F7.0°C 90% 17.0 mph S27.4 kmh S 27.0 mph43.5 kmh 29.61 in1002.7 mb 0.00 in0.0 mm 0.00 in0.0 mm 0.00 in0.0 mm
06:03 AM 47.5°F8.6°C 44.8°F7.1°C 90% 17.0 mph S27.4 kmh S 27.0 mph43.5 kmh 29.62 in1003.0 mb 0.00 in0.0 mm 0.00 in0.0 mm 0.00 in0.0 mm
06:06 AM 47.5°F8.6°C 44.8°F7.1°C 90% 16.0 mph S25.7 kmh S 27.0 mph43.5 kmh 29.62 in1003.0 mb 0.00 in0.0 mm 0.00 in0.0 mm 0.00 in0.0 mm
06:09 AM 47.7°F8.7°C 44.8°F7.1°C 90% 15.0 mph S24.1 kmh S 25.0 mph40.2 kmh 29.61 in1002.7 mb 0.00 in0.0 mm 0.00 in0.0 mm 0.00 in0.0 mm
06:12 AM 47.7°F8.7°C 44.8°F7.1°C 90% 14.0 mph S22.5 kmh S 24.0 mph38.6 kmh 29.62 in1003.0 mb 0.00 in0.0 mm 0.00 in0.0 mm 0.00 in0.0 mm
06:15 AM 47.7°F8.7°C 44.8°F7.1°C 90% 16.0 mph S25.7 kmh S 28.0 mph45.1 kmh 29.62 in1003.0 mb 0.00 in0.0 mm 0.00 in0.0 mm 0.00 in0.0 mm
06:18 AM 47.7°F8.7°C 45.0°F7.2°C 90% 16.0 mph S25.7 kmh S 28.0 mph45.1 kmh 29.61 in1002.7 mb 0.00 in0.0 mm 0.00 in0.0 mm 0.00 in0.0 mm
06:21 AM 47.8°F8.8°C 45.0°F7.2°C 90% 18.0 mph S29.0 kmh S 28.0 mph45.1 kmh 29.62 in1003.0 mb 0.00 in0.0 mm 0.00 in0.0 mm 0.00 in0.0 mm
06:24 AM 47.8°F8.8°C 45.0°F7.2°C 90% 18.0 mph S29.0 kmh S 28.0 mph45.1 kmh 29.61 in1002.7 mb 0.00 in0.0 mm 0.00 in0.0 mm 0.00 in0.0 mm
06:27 AM 47.8°F8.8°C 45.1°F7.3°C 90% 18.0 mph S29.0 kmh S 30.0 mph48.3 kmh 29.61 in1002.7 mb 0.00 in0.0 mm 0.00 in0.0 mm 0.00 in0.0 mm
06:30 AM 47.8°F8.8°C 45.1°F7.3°C 90% 18.0 mph S29.0 kmh S 30.0 mph48.3 kmh 29.61 in1002.7 mb 0.00 in0.0 mm 0.00 in0.0 mm 0.00 in0.0 mm
06:33 AM 48.0°F8.9°C 45.1°F7.3°C 90% 18.0 mph S29.0 kmh S 30.0 mph48.3 kmh 29.61 in1002.7 mb 0.00 in0.0 mm 0.00 in0.0 mm 0.00 in0.0 mm
06:36 AM 48.0°F8.9°C 45.1°F7.3°C 90% 17.0 mph S27.4 kmh S 25.0 mph40.2 kmh 29.61 in1002.7 mb 0.00 in0.0 mm 0.00 in0.0 mm 0.00 in0.0 mm
06:39 AM 48.0°F8.9°C 45.1°F7.3°C 90% 18.0 mph S29.0 kmh S 25.0 mph40.2 kmh 29.61 in1002.7 mb 0.00 in0.0 mm 0.00 in0.0 mm 0.00 in0.0 mm
06:42 AM 48.0°F8.9°C 45.5°F7.5°C 91% 18.0 mph S29.0 kmh S 31.0 mph49.9 kmh 29.61 in1002.7 mb 0.00 in0.0 mm 0.00 in0.0 mm 0.00 in0.0 mm
06:45 AM 48.0°F8.9°C 45.5°F7.5°C 91% 18.0 mph S29.0 kmh S 31.0 mph49.9 kmh 29.61 in1002.7 mb 0.00 in0.0 mm 0.00 in0.0 mm 0.00 in0.0 mm
06:48 AM 48.0°F8.9°C 45.5°F7.5°C 91% 18.0 mph S29.0 kmh S 31.0 mph49.9 kmh 29.61 in1002.7 mb 0.00 in0.0 mm 0.00 in0.0 mm 0.00 in0.0 mm
06:51 AM 48.0°F8.9°C 45.7°F7.6°C 91% 18.0 mph S29.0 kmh S 29.0 mph46.7 kmh 29.61 in1002.7 mb 0.00 in0.0 mm 0.00 in0.0 mm 0.00 in0.0 mm
06:54 AM 48.0°F8.9°C 45.7°F7.6°C 91% 18.0 mph S29.0 kmh S 29.0 mph46.7 kmh 29.61 in1002.7 mb 0.00 in0.0 mm 0.00 in0.0 mm 0.00 in0.0 mm
06:57 AM 48.2°F9.0°C 45.7°F7.6°C 91% 18.0 mph S29.0 kmh S 29.0 mph46.7 kmh 29.61 in1002.7 mb 0.00 in0.0 mm 0.00 in0.0 mm 0.00 in0.0 mm
07:00 AM 48.2°F9.0°C 45.7°F7.6°C 91% 19.0 mph S30.6 kmh S 29.0 mph46.7 kmh 29.60 in1002.4 mb 0.00 in0.0 mm 0.00 in0.0 mm 0.00 in0.0 mm
07:03 AM 48.2°F9.0°C 45.7°F7.6°C 91% 20.0 mph S32.2 kmh S 31.0 mph49.9 kmh 29.61 in1002.7 mb 0.00 in0.0 mm 0.00 in0.0 mm 0.00 in0.0 mm
07:06 AM 48.4°F9.1°C 45.9°F7.7°C 91% 20.0 mph S32.2 kmh S 31.0 mph49.9 kmh 29.61 in1002.7 mb 0.00 in0.0 mm 0.00 in0.0 mm 0.00 in0.0 mm
07:09 AM 48.4°F9.1°C 45.9°F7.7°C 91% 21.0 mph S33.8 kmh S 31.0 mph49.9 kmh 29.61 in1002.7 mb 0.00 in0.0 mm 0.00 in0.0 mm 0.00 in0.0 mm
07:12 AM 48.4°F9.1°C 45.9°F7.7°C 91% 20.0 mph S32.2 kmh S 31.0 mph49.9 kmh 29.61 in1002.7 mb 0.00 in0.0 mm 0.00 in0.0 mm 0.00 in0.0 mm
07:15 AM 48.4°F9.1°C 45.9°F7.7°C 91% 20.0 mph S32.2 kmh S 30.0 mph48.3 kmh 29.61 in1002.7 mb 0.00 in0.0 mm 0.00 in0.0 mm 0.00 in0.0 mm
07:18 AM 48.6°F9.2°C 46.0°F7.8°C 91% 19.0 mph S30.6 kmh S 33.0 mph53.1 kmh 29.61 in1002.7 mb 0.00 in0.0 mm 0.00 in0.0 mm 0.00 in0.0 mm
07:21 AM 48.6°F9.2°C 46.0°F7.8°C 91% 19.0 mph S30.6 kmh S 33.0 mph53.1 kmh 29.61 in1002.7 mb 0.00 in0.0 mm 0.00 in0.0 mm 0.00 in0.0 mm
07:24 AM 48.6°F9.2°C 46.0°F7.8°C 91% 19.0 mph S30.6 kmh S 33.0 mph53.1 kmh 29.61 in1002.7 mb 0.00 in0.0 mm 0.00 in0.0 mm 0.00 in0.0 mm
07:27 AM 48.6°F9.2°C 46.0°F7.8°C 91% 20.0 mph S32.2 kmh S 31.0 mph49.9 kmh 29.61 in1002.7 mb 0.00 in0.0 mm 0.00 in0.0 mm 0.00 in0.0 mm
07:30 AM 48.6°F9.2°C 46.0°F7.8°C 91% 21.0 mph SSE33.8 kmh SSE 32.0 mph51.5 kmh 29.61 in1002.7 mb 0.00 in0.0 mm 0.00 in0.0 mm 0.00 in0.0 mm
07:33 AM 48.6°F9.2°C 46.0°F7.8°C 91% 22.0 mph SSE35.4 kmh SSE 32.0 mph51.5 kmh 29.61 in1002.7 mb 0.00 in0.0 mm 0.00 in0.0 mm 0.00 in0.0 mm
07:36 AM 48.6°F9.2°C 46.0°F7.8°C 91% 22.0 mph SSE35.4 kmh SSE 32.0 mph51.5 kmh 29.61 in1002.7 mb 0.00 in0.0 mm 0.00 in0.0 mm 0.00 in0.0 mm
07:39 AM 48.6°F9.2°C 46.0°F7.8°C 91% 22.0 mph SSE35.4 kmh SSE 32.0 mph51.5 kmh 29.61 in1002.7 mb 0.00 in0.0 mm 0.00 in0.0 mm 0.00 in0.0 mm
07:42 AM 48.7°F9.3°C 46.2°F7.9°C 91% 22.0 mph SSE35.4 kmh SSE 30.0 mph48.3 kmh 29.61 in1002.7 mb 0.00 in0.0 mm 0.00 in0.0 mm 0.00 in0.0 mm
07:45 AM 48.7°F9.3°C 46.2°F7.9°C 91% 22.0 mph SSE35.4 kmh SSE 30.0 mph48.3 kmh 29.61 in1002.7 mb 0.00 in0.0 mm 0.00 in0.0 mm 0.00 in0.0 mm
07:48 AM 48.7°F9.3°C 46.2°F7.9°C 91% 21.0 mph SSE33.8 kmh SSE 30.0 mph48.3 kmh 29.61 in1002.7 mb 0.00 in0.0 mm 0.00 in0.0 mm 0.00 in0.0 mm
07:51 AM 48.7°F9.3°C 46.2°F7.9°C 91% 21.0 mph SSE33.8 kmh SSE 30.0 mph48.3 kmh 29.61 in1002.7 mb 0.00 in0.0 mm 0.00 in0.0 mm 0.00 in0.0 mm
07:54 AM 48.7°F9.3°C 46.2°F7.9°C 91% 20.0 mph SSE32.2 kmh SSE 30.0 mph48.3 kmh 29.61 in1002.7 mb 0.00 in0.0 mm 0.00 in0.0 mm 0.00 in0.0 mm
07:57 AM 48.7°F9.3°C 46.2°F7.9°C 91% 20.0 mph SSE32.2 kmh SSE 30.0 mph48.3 kmh 29.61 in1002.7 mb 0.00 in0.0 mm 0.00 in0.0 mm 0.00 in0.0 mm
08:00 AM 48.7°F9.3°C 46.2°F7.9°C 91% 19.0 mph SSE30.6 kmh SSE 30.0 mph48.3 kmh 29.61 in1002.7 mb 0.00 in0.0 mm 0.00 in0.0 mm 0.00 in0.0 mm
08:03 AM 48.9°F9.4°C 46.4°F8.0°C 91% 19.0 mph S30.6 kmh S 30.0 mph48.3 kmh 29.61 in1002.7 mb 0.00 in0.0 mm 0.00 in0.0 mm 0.00 in0.0 mm
08:06 AM 48.9°F9.4°C 46.4°F8.0°C 91% 20.0 mph S32.2 kmh S 30.0 mph48.3 kmh 29.61 in1002.7 mb 0.00 in0.0 mm 0.00 in0.0 mm 0.00 in0.0 mm
08:09 AM 49.3°F9.6°C 46.8°F8.2°C 91% 21.0 mph S33.8 kmh S 32.0 mph51.5 kmh 29.61 in1002.7 mb 0.00 in0.0 mm 0.00 in0.0 mm 0.00 in0.0 mm
08:12 AM 49.5°F9.7°C 46.9°F8.3°C 91% 20.0 mph S32.2 kmh S 32.0 mph51.5 kmh 29.61 in1002.7 mb 0.00 in0.0 mm 0.00 in0.0 mm 0.00 in0.0 mm
08:15 AM 49.6°F9.8°C 46.8°F8.2°C 90% 20.0 mph S32.2 kmh S 32.0 mph51.5 kmh 29.61 in1002.7 mb 0.00 in0.0 mm 0.00 in0.0 mm 0.00 in0.0 mm
08:18 AM 49.8°F9.9°C 46.9°F8.3°C 90% 20.0 mph S32.2 kmh S 33.0 mph53.1 kmh 29.61 in1002.7 mb 0.00 in0.0 mm 0.00 in0.0 mm 0.00 in0.0 mm
08:21 AM 49.8°F9.9°C 47.1°F8.4°C 90% 21.0 mph S33.8 kmh S 33.0 mph53.1 kmh 29.61 in1002.7 mb 0.00 in0.0 mm 0.00 in0.0 mm 0.00 in0.0 mm
08:24 AM 49.8°F9.9°C 47.1°F8.4°C 90% 21.0 mph S33.8 kmh S 33.0 mph53.1 kmh 29.61 in1002.7 mb 0.00 in0.0 mm 0.00 in0.0 mm 0.00 in0.0 mm
08:27 AM 49.8°F9.9°C 46.8°F8.2°C 89% 21.0 mph S33.8 kmh S 33.0 mph53.1 kmh 29.61 in1002.7 mb 0.00 in0.0 mm 0.00 in0.0 mm 0.00 in0.0 mm
08:30 AM 49.6°F9.8°C 46.6°F8.1°C 89% 21.0 mph S33.8 kmh S 33.0 mph53.1 kmh 29.61 in1002.7 mb 0.00 in0.0 mm 0.00 in0.0 mm 0.00 in0.0 mm
08:33 AM 49.6°F9.8°C 46.6°F8.1°C 89% 21.0 mph S33.8 kmh S 35.0 mph56.3 kmh 29.62 in1003.0 mb 0.00 in0.0 mm 0.00 in0.0 mm 0.00 in0.0 mm
08:36 AM 49.5°F9.7°C 46.4°F8.0°C 89% 21.0 mph S33.8 kmh S 35.0 mph56.3 kmh 29.62 in1003.0 mb 0.00 in0.0 mm 0.00 in0.0 mm 0.00 in0.0 mm
08:39 AM 49.5°F9.7°C 46.4°F8.0°C 89% 21.0 mph S33.8 kmh S 35.0 mph56.3 kmh 29.62 in1003.0 mb 0.00 in0.0 mm 0.00 in0.0 mm 0.00 in0.0 mm
08:42 AM 49.5°F9.7°C 46.8°F8.2°C 90% 21.0 mph S33.8 kmh S 35.0 mph56.3 kmh 29.62 in1003.0 mb 0.00 in0.0 mm 0.00 in0.0 mm 0.00 in0.0 mm
08:45 AM 49.5°F9.7°C 46.8°F8.2°C 90% 21.0 mph S33.8 kmh S 32.0 mph51.5 kmh 29.62 in1003.0 mb 0.00 in0.0 mm 0.00 in0.0 mm 0.00 in0.0 mm
08:48 AM 49.5°F9.7°C 46.8°F8.2°C 90% 21.0 mph S33.8 kmh S 32.0 mph51.5 kmh 29.62 in1003.0 mb 0.00 in0.0 mm 0.00 in0.0 mm 0.00 in0.0 mm
08:51 AM 49.5°F9.7°C 46.8°F8.2°C 90% 21.0 mph S33.8 kmh S 32.0 mph51.5 kmh 29.62 in1003.0 mb 0.00 in0.0 mm 0.00 in0.0 mm 0.00 in0.0 mm
08:54 AM 49.5°F9.7°C 46.8°F8.2°C 90% 20.0 mph S32.2 kmh S 32.0 mph51.5 kmh 29.62 in1003.0 mb 0.00 in0.0 mm 0.00 in0.0 mm 0.00 in0.0 mm
08:57 AM 49.6°F9.8°C 46.8°F8.2°C 90% 20.0 mph S32.2 kmh S 31.0 mph49.9 kmh 29.62 in1003.0 mb 0.00 in0.0 mm 0.00 in0.0 mm 0.00 in0.0 mm
09:00 AM 49.6°F9.8°C 46.8°F8.2°C 90% 20.0 mph S32.2 kmh S 34.0 mph54.7 kmh 29.61 in1002.7 mb 0.00 in0.0 mm 0.00 in0.0 mm 0.00 in0.0 mm
09:03 AM 49.6°F9.8°C 46.8°F8.2°C 90% 21.0 mph S33.8 kmh S 34.0 mph54.7 kmh 29.62 in1003.0 mb 0.00 in0.0 mm 0.00 in0.0 mm 0.00 in0.0 mm
09:06 AM 49.6°F9.8°C 46.6°F8.1°C 89% 22.0 mph S35.4 kmh S 35.0 mph56.3 kmh 29.61 in1002.7 mb 0.00 in0.0 mm 0.00 in0.0 mm 0.00 in0.0 mm
09:09 AM 49.6°F9.8°C 46.6°F8.1°C 89% 22.0 mph S35.4 kmh S 35.0 mph56.3 kmh 29.62 in1003.0 mb 0.00 in0.0 mm 0.00 in0.0 mm 0.00 in0.0 mm
09:12 AM 49.8°F9.9°C 46.8°F8.2°C 89% 21.0 mph SSE33.8 kmh SSE 35.0 mph56.3 kmh 29.62 in1003.0 mb 0.00 in0.0 mm 0.00 in0.0 mm 0.00 in0.0 mm
09:15 AM 49.8°F9.9°C 46.8°F8.2°C 89% 22.0 mph SSE35.4 kmh SSE 35.0 mph56.3 kmh 29.61 in1002.7 mb 0.00 in0.0 mm 0.00 in0.0 mm 0.00 in0.0 mm
09:18 AM 49.8°F9.9°C 46.8°F8.2°C 89% 22.0 mph S35.4 kmh S 32.0 mph51.5 kmh 29.61 in1002.7 mb 0.00 in0.0 mm 0.00 in0.0 mm 0.00 in0.0 mm
09:21 AM 49.8°F9.9°C 47.1°F8.4°C 90% 22.0 mph SSE35.4 kmh SSE 33.0 mph53.1 kmh 29.61 in1002.7 mb 0.00 in0.0 mm 0.00 in0.0 mm 0.00 in0.0 mm
09:24 AM 50.0°F10.0°C 46.9°F8.3°C 89% 23.0 mph S37.0 kmh S 34.0 mph54.7 kmh 29.61 in1002.7 mb 0.00 in0.0 mm 0.00 in0.0 mm 0.00 in0.0 mm
09:27 AM 50.0°F10.0°C 46.9°F8.3°C 89% 23.0 mph SSE37.0 kmh SSE 34.0 mph54.7 kmh 29.61 in1002.7 mb 0.00 in0.0 mm 0.00 in0.0 mm 0.00 in0.0 mm
09:30 AM 50.2°F10.1°C 47.3°F8.5°C 90% 22.0 mph SSE35.4 kmh SSE 34.0 mph54.7 kmh 29.61 in1002.7 mb 0.00 in0.0 mm 0.00 in0.0 mm 0.00 in0.0 mm
09:33 AM 50.2°F10.1°C 47.3°F8.5°C 90% 22.0 mph SSE35.4 kmh SSE 32.0 mph51.5 kmh 29.61 in1002.7 mb 0.00 in0.0 mm 0.00 in0.0 mm 0.00 in0.0 mm
09:36 AM 50.4°F10.2°C 47.3°F8.5°C 89% 22.0 mph SSE35.4 kmh SSE 32.0 mph51.5 kmh 29.61 in1002.7 mb 0.00 in0.0 mm 0.00 in0.0 mm 0.00 in0.0 mm
09:39 AM 50.7°F10.4°C 47.7°F8.7°C 89% 23.0 mph SSE37.0 kmh SSE 35.0 mph56.3 kmh 29.61 in1002.7 mb 0.00 in0.0 mm 0.00 in0.0 mm 0.00 in0.0 mm
09:42 AM 50.7°F10.4°C 47.7°F8.7°C 89% 24.0 mph SSE38.6 kmh SSE 35.0 mph56.3 kmh 29.61 in1002.7 mb 0.00 in0.0 mm 0.00 in0.0 mm 0.00 in0.0 mm
09:45 AM 50.7°F10.4°C 47.3°F8.5°C 88% 25.0 mph SSE40.2 kmh SSE 35.0 mph56.3 kmh 29.61 in1002.7 mb 0.00 in0.0 mm 0.00 in0.0 mm 0.00 in0.0 mm
09:48 AM 50.7°F10.4°C 47.3°F8.5°C 88% 25.0 mph SSE40.2 kmh SSE 34.0 mph54.7 kmh 29.61 in1002.7 mb 0.00 in0.0 mm 0.00 in0.0 mm 0.00 in0.0 mm
09:51 AM 50.7°F10.4°C 47.7°F8.7°C 89% 24.0 mph SSE38.6 kmh SSE 33.0 mph53.1 kmh 29.61 in1002.7 mb 0.00 in0.0 mm 0.00 in0.0 mm 0.00 in0.0 mm
09:54 AM 50.7°F10.4°C 47.7°F8.7°C 89% 24.0 mph SSE38.6 kmh SSE 33.0 mph53.1 kmh 29.61 in1002.7 mb 0.00 in0.0 mm 0.00 in0.0 mm 0.00 in0.0 mm
09:57 AM 50.7°F10.4°C 47.7°F8.7°C 89% 24.0 mph SSE38.6 kmh SSE 34.0 mph54.7 kmh 29.61 in1002.7 mb 0.00 in0.0 mm 0.00 in0.0 mm 0.00 in0.0 mm
10:00 AM 50.7°F10.4°C 48.0°F8.9°C 90% 24.0 mph SSE38.6 kmh SSE 34.0 mph54.7 kmh 29.61 in1002.7 mb 0.00 in0.0 mm 0.00 in0.0 mm 0.00 in0.0 mm
10:03 AM 50.9°F10.5°C 47.8°F8.8°C 89% 24.0 mph SSE38.6 kmh SSE 34.0 mph54.7 kmh 29.60 in1002.4 mb 0.00 in0.0 mm 0.00 in0.0 mm 0.00 in0.0 mm
10:06 AM 50.9°F10.5°C 47.8°F8.8°C 89% 24.0 mph SSE38.6 kmh SSE 34.0 mph54.7 kmh 29.60 in1002.4 mb 0.00 in0.0 mm 0.00 in0.0 mm 0.00 in0.0 mm
10:09 AM 51.1°F10.6°C 47.8°F8.8°C 89% 23.0 mph SSE37.0 kmh SSE 34.0 mph54.7 kmh 29.60 in1002.4 mb 0.00 in0.0 mm 0.00 in0.0 mm 0.00 in0.0 mm
10:12 AM 50.9°F10.5°C 47.8°F8.8°C 89% 24.0 mph S38.6 kmh S 39.0 mph62.8 kmh 29.60 in1002.4 mb 0.00 in0.0 mm 0.00 in0.0 mm 0.00 in0.0 mm
10:15 AM 50.7°F10.4°C 47.7°F8.7°C 89% 24.0 mph S38.6 kmh S 39.0 mph62.8 kmh 29.61 in1002.7 mb 0.00 in0.0 mm 0.00 in0.0 mm 0.00 in0.0 mm
10:18 AM 50.7°F10.4°C 47.7°F8.7°C 89% 24.0 mph S38.6 kmh S 39.0 mph62.8 kmh 29.60 in1002.4 mb 0.00 in0.0 mm 0.00 in0.0 mm 0.00 in0.0 mm
10:21 AM 50.5°F10.3°C 47.5°F8.6°C 89% 24.0 mph S38.6 kmh S 39.0 mph62.8 kmh 29.61 in1002.7 mb 0.00 in0.0 mm 0.00 in0.0 mm 0.00 in0.0 mm
10:24 AM 50.5°F10.3°C 47.7°F8.7°C 90% 23.0 mph S37.0 kmh S 39.0 mph62.8 kmh 29.60 in1002.4 mb 0.00 in0.0 mm 0.00 in0.0 mm 0.00 in0.0 mm
10:27 AM 50.4°F10.2°C 47.5°F8.6°C 90% 24.0 mph SSE38.6 kmh SSE 39.0 mph62.8 kmh 29.60 in1002.4 mb 0.00 in0.0 mm 0.00 in0.0 mm 0.00 in0.0 mm
10:30 AM 50.2°F10.1°C 47.3°F8.5°C 90% 24.0 mph S38.6 kmh S 38.0 mph61.2 kmh 29.60 in1002.4 mb 0.00 in0.0 mm 0.00 in0.0 mm 0.00 in0.0 mm
10:33 AM 50.0°F10.0°C 47.5°F8.6°C 91% 24.0 mph S38.6 kmh S 38.0 mph61.2 kmh 29.60 in1002.4 mb 0.00 in0.0 mm 0.00 in0.0 mm 0.00 in0.0 mm
10:36 AM 49.8°F9.9°C 47.3°F8.5°C 91% 24.0 mph S38.6 kmh S 38.0 mph61.2 kmh 29.60 in1002.4 mb 0.00 in0.0 mm 0.00 in0.0 mm 0.00 in0.0 mm
10:39 AM 49.8°F9.9°C 47.3°F8.5°C 91% 24.0 mph S38.6 kmh S 37.0 mph59.5 kmh 29.60 in1002.4 mb 0.00 in0.0 mm 0.00 in0.0 mm 0.00 in0.0 mm
10:42 AM 49.8°F9.9°C 47.3°F8.5°C 91% 25.0 mph S40.2 kmh S 37.0 mph59.5 kmh 29.59 in1002.0 mb 0.00 in0.0 mm 0.00 in0.0 mm 0.00 in0.0 mm
10:45 AM 49.8°F9.9°C 47.3°F8.5°C 91% 25.0 mph S40.2 kmh S 37.0 mph59.5 kmh 29.60 in1002.4 mb 0.00 in0.0 mm 0.00 in0.0 mm 0.00 in0.0 mm
10:48 AM 49.8°F9.9°C 47.3°F8.5°C 91% 25.0 mph S40.2 kmh S 37.0 mph59.5 kmh 29.59 in1002.0 mb 0.00 in0.0 mm 0.00 in0.0 mm 0.00 in0.0 mm
10:51 AM 49.8°F9.9°C 47.3°F8.5°C 91% 25.0 mph S40.2 kmh S 35.0 mph56.3 kmh 29.59 in1002.0 mb 0.00 in0.0 mm 0.00 in0.0 mm 0.00 in0.0 mm
10:54 AM 49.8°F9.9°C 47.3°F8.5°C 91% 25.0 mph SSE40.2 kmh SSE 42.0 mph67.6 kmh 29.59 in1002.0 mb 0.00 in0.0 mm 0.00 in0.0 mm 0.00 in0.0 mm
10:57 AM 49.6°F9.8°C 47.1°F8.4°C 91% 26.0 mph SSE41.8 kmh SSE 42.0 mph67.6 kmh 29.60 in1002.4 mb 0.00 in0.0 mm 0.00 in0.0 mm 0.00 in0.0 mm
11:00 AM 49.6°F9.8°C 47.1°F8.4°C 91% 26.0 mph SSE41.8 kmh SSE 42.0 mph67.6 kmh 29.59 in1002.0 mb 0.00 in0.0 mm 0.00 in0.0 mm 0.00 in0.0 mm
11:03 AM 49.6°F9.8°C 47.1°F8.4°C 91% 26.0 mph S41.8 kmh S 37.0 mph59.5 kmh 29.59 in1002.0 mb 0.00 in0.0 mm 0.00 in0.0 mm 0.00 in0.0 mm
11:06 AM 49.5°F9.7°C 46.9°F8.3°C 91% 26.0 mph S41.8 kmh S 37.0 mph59.5 kmh 29.59 in1002.0 mb 0.00 in0.0 mm 0.00 in0.0 mm 0.00 in0.0 mm
11:09 AM 49.5°F9.7°C 46.9°F8.3°C 91% 26.0 mph S41.8 kmh S 37.0 mph59.5 kmh 29.59 in1002.0 mb 0.00 in0.0 mm 0.00 in0.0 mm 0.00 in0.0 mm
11:12 AM 49.5°F9.7°C 46.9°F8.3°C 91% 27.0 mph SSE43.5 kmh SSE 37.0 mph59.5 kmh 29.59 in1002.0 mb 0.00 in0.0 mm 0.00 in0.0 mm 0.00 in0.0 mm
11:15 AM 49.5°F9.7°C 46.9°F8.3°C 91% 27.0 mph SSE43.5 kmh SSE 37.0 mph59.5 kmh 29.59 in1002.0 mb 0.00 in0.0 mm 0.00 in0.0 mm 0.00 in0.0 mm
11:18 AM 49.5°F9.7°C 46.9°F8.3°C 91% 27.0 mph SSE43.5 kmh SSE 38.0 mph61.2 kmh 29.59 in1002.0 mb 0.00 in0.0 mm 0.00 in0.0 mm 0.00 in0.0 mm
11:21 AM 49.5°F9.7°C 46.9°F8.3°C 91% 28.0 mph SSE45.1 kmh SSE 41.0 mph66.0 kmh 29.59 in1002.0 mb 0.00 in0.0 mm 0.00 in0.0 mm 0.00 in0.0 mm
11:24 AM 49.5°F9.7°C 46.9°F8.3°C 91% 28.0 mph SSE45.1 kmh SSE 41.0 mph66.0 kmh 29.59 in1002.0 mb 0.00 in0.0 mm 0.00 in0.0 mm 0.00 in0.0 mm
11:27 AM 49.5°F9.7°C 46.9°F8.3°C 91% 29.0 mph SSE46.7 kmh SSE 41.0 mph66.0 kmh 29.59 in1002.0 mb 0.00 in0.0 mm 0.00 in0.0 mm 0.00 in0.0 mm
11:30 AM 49.6°F9.8°C 47.1°F8.4°C 91% 28.0 mph SSE45.1 kmh SSE 42.0 mph67.6 kmh 29.58 in1001.7 mb 0.00 in0.0 mm 0.00 in0.0 mm 0.00 in0.0 mm
11:33 AM 49.6°F9.8°C 47.3°F8.5°C 92% 28.0 mph SSE45.1 kmh SSE 42.0 mph67.6 kmh 29.58 in1001.7 mb 0.00 in0.0 mm 0.00 in0.0 mm 0.00 in0.0 mm
11:36 AM 49.6°F9.8°C 47.3°F8.5°C 92% 28.0 mph SSE45.1 kmh SSE 42.0 mph67.6 kmh 29.58 in1001.7 mb 0.00 in0.0 mm 0.00 in0.0 mm 0.00 in0.0 mm
11:39 AM 49.5°F9.7°C 47.3°F8.5°C 92% 28.0 mph SSE45.1 kmh SSE 42.0 mph67.6 kmh 29.58 in1001.7 mb 0.00 in0.0 mm 0.00 in0.0 mm 0.00 in0.0 mm
11:42 AM 49.5°F9.7°C 47.3°F8.5°C 92% 29.0 mph SSE46.7 kmh SSE 40.0 mph64.4 kmh 29.58 in1001.7 mb 0.00 in0.0 mm 0.00 in0.0 mm 0.00 in0.0 mm
11:45 AM 49.5°F9.7°C 47.3°F8.5°C 92% 29.0 mph SSE46.7 kmh SSE 40.0 mph64.4 kmh 29.58 in1001.7 mb 0.00 in0.0 mm 0.00 in0.0 mm 0.00 in0.0 mm
11:48 AM 49.5°F9.7°C 47.3°F8.5°C 92% 30.0 mph SSE48.3 kmh SSE 40.0 mph64.4 kmh 29.58 in1001.7 mb 0.00 in0.0 mm 0.00 in0.0 mm 0.00 in0.0 mm
11:51 AM 49.5°F9.7°C 47.1°F8.4°C 92% 30.0 mph SSE48.3 kmh SSE 42.0 mph67.6 kmh 29.58 in1001.7 mb 0.00 in0.0 mm 0.00 in0.0 mm 0.00 in0.0 mm
11:54 AM 49.5°F9.7°C 47.1°F8.4°C 92% 30.0 mph SSE48.3 kmh SSE 42.0 mph67.6 kmh 29.58 in1001.7 mb 0.00 in0.0 mm 0.00 in0.0 mm 0.00 in0.0 mm
11:57 AM 49.5°F9.7°C 47.1°F8.4°C 92% 30.0 mph SSE48.3 kmh SSE 42.0 mph67.6 kmh 29.58 in1001.7 mb 0.01 in0.3 mm 0.20 in5.1 mm 0.01 in0.3 mm
12:00 PM 49.5°F9.7°C 47.1°F8.4°C 92% 30.0 mph SSE48.3 kmh SSE 42.0 mph67.6 kmh 29.57 in1001.4 mb 0.01 in0.3 mm 0.00 in0.0 mm 0.01 in0.3 mm
12:03 PM 49.5°F9.7°C 47.1°F8.4°C 92% 30.0 mph SSE48.3 kmh SSE 42.0 mph67.6 kmh 29.58 in1001.7 mb 0.01 in0.3 mm 0.00 in0.0 mm 0.01 in0.3 mm
12:06 PM 49.5°F9.7°C 47.1°F8.4°C 92% 29.0 mph SSE46.7 kmh SSE 45.0 mph72.4 kmh 29.57 in1001.4 mb 0.01 in0.3 mm 0.00 in0.0 mm 0.01 in0.3 mm
12:09 PM 49.5°F9.7°C 47.1°F8.4°C 92% 30.0 mph SSE48.3 kmh SSE 45.0 mph72.4 kmh 29.57 in1001.4 mb 0.01 in0.3 mm 0.00 in0.0 mm 0.01 in0.3 mm
12:12 PM 49.5°F9.7°C 47.1°F8.4°C 92% 31.0 mph SSE49.9 kmh SSE 45.0 mph72.4 kmh 29.57 in1001.4 mb 0.01 in0.3 mm 0.00 in0.0 mm 0.01 in0.3 mm
12:15 PM 49.5°F9.7°C 47.1°F8.4°C 92% 31.0 mph SSE49.9 kmh SSE 44.0 mph70.8 kmh 29.57 in1001.4 mb 0.01 in0.3 mm 0.00 in0.0 mm 0.01 in0.3 mm
12:18 PM 49.5°F9.7°C 47.1°F8.4°C 92% 31.0 mph SSE49.9 kmh SSE 44.0 mph70.8 kmh 29.57 in1001.4 mb 0.01 in0.3 mm 0.00 in0.0 mm 0.01 in0.3 mm
12:21 PM 49.5°F9.7°C 47.1°F8.4°C 92% 31.0 mph SSE49.9 kmh SSE 45.0 mph72.4 kmh 29.57 in1001.4 mb 0.02 in0.5 mm 0.20 in5.1 mm 0.02 in0.5 mm
12:24 PM 49.5°F9.7°C 47.5°F8.6°C 93% 31.0 mph SSE49.9 kmh SSE 45.0 mph72.4 kmh 29.57 in1001.4 mb 0.02 in0.5 mm 0.00 in0.0 mm 0.02 in0.5 mm
12:27 PM 49.3°F9.6°C 47.3°F8.5°C 93% 31.0 mph SSE49.9 kmh SSE 45.0 mph72.4 kmh 29.57 in1001.4 mb 0.02 in0.5 mm 0.00 in0.0 mm 0.02 in0.5 mm
12:30 PM 49.3°F9.6°C 47.3°F8.5°C 93% 30.0 mph SSE48.3 kmh SSE 45.0 mph72.4 kmh 29.57 in1001.4 mb 0.02 in0.5 mm 0.00 in0.0 mm 0.02 in0.5 mm
12:33 PM 49.5°F9.7°C 47.5°F8.6°C 93% 30.0 mph SSE48.3 kmh SSE 40.0 mph64.4 kmh 29.56 in1001.0 mb 0.02 in0.5 mm 0.00 in0.0 mm 0.02 in0.5 mm
12:36 PM 49.5°F9.7°C 47.5°F8.6°C 93% 31.0 mph SSE49.9 kmh SSE 42.0 mph67.6 kmh 29.56 in1001.0 mb 0.02 in0.5 mm 0.00 in0.0 mm 0.02 in0.5 mm
12:39 PM 49.5°F9.7°C 47.5°F8.6°C 93% 31.0 mph SSE49.9 kmh SSE 43.0 mph69.2 kmh 29.56 in1001.0 mb 0.02 in0.5 mm 0.00 in0.0 mm 0.02 in0.5 mm
12:42 PM 49.5°F9.7°C 47.5°F8.6°C 93% 31.0 mph SSE49.9 kmh SSE 43.0 mph69.2 kmh 29.57 in1001.4 mb 0.02 in0.5 mm 0.00 in0.0 mm 0.02 in0.5 mm
12:45 PM 49.5°F9.7°C 47.5°F8.6°C 93% 30.0 mph SSE48.3 kmh SSE 43.0 mph69.2 kmh 29.57 in1001.4 mb 0.02 in0.5 mm 0.00 in0.0 mm 0.02 in0.5 mm
12:48 PM 49.5°F9.7°C 47.5°F8.6°C 93% 30.0 mph S48.3 kmh S 43.0 mph69.2 kmh 29.57 in1001.4 mb 0.02 in0.5 mm 0.00 in0.0 mm 0.02 in0.5 mm
12:51 PM 49.5°F9.7°C 47.5°F8.6°C 93% 28.0 mph S45.1 kmh S 41.0 mph66.0 kmh 29.57 in1001.4 mb 0.02 in0.5 mm 0.00 in0.0 mm 0.02 in0.5 mm
12:54 PM 49.5°F9.7°C 47.5°F8.6°C 93% 27.0 mph S43.5 kmh S 50.0 mph80.5 kmh 29.56 in1001.0 mb 0.02 in0.5 mm 0.00 in0.0 mm 0.02 in0.5 mm
12:57 PM 49.5°F9.7°C 47.5°F8.6°C 93% 28.0 mph S45.1 kmh S 50.0 mph80.5 kmh 29.55 in1000.7 mb 0.01 in0.3 mm 0.00 in0.0 mm 0.02 in0.5 mm
01:00 PM 49.6°F9.8°C 47.3°F8.5°C 92% 30.0 mph S48.3 kmh S 50.0 mph80.5 kmh 29.55 in1000.7 mb 0.01 in0.3 mm 0.00 in0.0 mm 0.02 in0.5 mm
01:03 PM 49.6°F9.8°C 47.3°F8.5°C 92% 31.0 mph S49.9 kmh S 50.0 mph80.5 kmh 29.56 in1001.0 mb 0.01 in0.3 mm 0.00 in0.0 mm 0.02 in0.5 mm
01:06 PM 49.6°F9.8°C 47.3°F8.5°C 92% 30.0 mph S48.3 kmh S 46.0 mph74.0 kmh 29.56 in1001.0 mb 0.01 in0.3 mm 0.00 in0.0 mm 0.02 in0.5 mm
01:09 PM 49.6°F9.8°C 47.7°F8.7°C 93% 29.0 mph S46.7 kmh S 41.0 mph66.0 kmh 29.55 in1000.7 mb 0.01 in0.3 mm 0.00 in0.0 mm 0.02 in0.5 mm
01:12 PM 49.5°F9.7°C 47.5°F8.6°C 93% 31.0 mph S49.9 kmh S 49.0 mph78.9 kmh 29.55 in1000.7 mb 0.02 in0.5 mm 0.20 in5.1 mm 0.02 in0.5 mm
01:15 PM 49.5°F9.7°C 47.5°F8.6°C 93% 31.0 mph S49.9 kmh S 49.0 mph78.9 kmh 29.56 in1001.0 mb 0.02 in0.5 mm 0.00 in0.0 mm 0.02 in0.5 mm
01:18 PM 49.5°F9.7°C 47.5°F8.6°C 93% 30.0 mph S48.3 kmh S 52.0 mph83.7 kmh 29.55 in1000.7 mb 0.02 in0.5 mm 0.00 in0.0 mm 0.03 in0.8 mm
01:21 PM 49.3°F9.6°C 47.3°F8.5°C 93% 31.0 mph S49.9 kmh S 52.0 mph83.7 kmh 29.56 in1001.0 mb 0.02 in0.5 mm 0.00 in0.0 mm 0.04 in1.0 mm
01:24 PM 49.3°F9.6°C 47.3°F8.5°C 93% 30.0 mph S48.3 kmh S 52.0 mph83.7 kmh 29.56 in1001.0 mb 0.03 in0.8 mm 0.20 in5.1 mm 0.05 in1.3 mm
01:27 PM 49.3°F9.6°C 47.5°F8.6°C 94% 30.0 mph S48.3 kmh S 52.0 mph83.7 kmh 29.55 in1000.7 mb 0.03 in0.8 mm 0.00 in0.0 mm 0.05 in1.3 mm
01:30 PM 49.3°F9.6°C 47.5°F8.6°C 94% 30.0 mph S48.3 kmh S 47.0 mph75.6 kmh 29.55 in1000.7 mb 0.04 in1.0 mm 0.20 in5.1 mm 0.06 in1.5 mm
01:33 PM 49.3°F9.6°C 47.5°F8.6°C 94% 29.0 mph S46.7 kmh S 47.0 mph75.6 kmh 29.55 in1000.7 mb 0.04 in1.0 mm 0.00 in0.0 mm 0.06 in1.5 mm
01:36 PM 49.1°F9.5°C 47.5°F8.6°C 94% 31.0 mph S49.9 kmh S 47.0 mph75.6 kmh 29.55 in1000.7 mb 0.04 in1.0 mm 0.00 in0.0 mm 0.06 in1.5 mm
01:39 PM 49.1°F9.5°C 47.5°F8.6°C 94% 30.0 mph S48.3 kmh S 47.0 mph75.6 kmh 29.55 in1000.7 mb 0.04 in1.0 mm 0.00 in0.0 mm 0.06 in1.5 mm
01:42 PM 49.1°F9.5°C 47.5°F8.6°C 94% 31.0 mph S49.9 kmh S 47.0 mph75.6 kmh 29.55 in1000.7 mb 0.04 in1.0 mm 0.00 in0.0 mm 0.06 in1.5 mm
01:45 PM 48.9°F9.4°C 47.3°F8.5°C 94% 29.0 mph S46.7 kmh S 47.0 mph75.6 kmh 29.55 in1000.7 mb 0.04 in1.0 mm 0.00 in0.0 mm 0.06 in1.5 mm
01:48 PM 48.9°F9.4°C 47.3°F8.5°C 94% 30.0 mph S48.3 kmh S 43.0 mph69.2 kmh 29.55 in1000.7 mb 0.04 in1.0 mm 0.00 in0.0 mm 0.06 in1.5 mm
01:51 PM 49.1°F9.5°C 47.7°F8.7°C 95% 29.0 mph SSE46.7 kmh SSE 44.0 mph70.8 kmh 29.54 in1000.3 mb 0.04 in1.0 mm 0.00 in0.0 mm 0.06 in1.5 mm
01:54 PM 49.1°F9.5°C 47.7°F8.7°C 95% 29.0 mph SSE46.7 kmh SSE 44.0 mph70.8 kmh 29.55 in1000.7 mb 0.04 in1.0 mm 0.00 in0.0 mm 0.06 in1.5 mm
01:57 PM 49.1°F9.5°C 47.7°F8.7°C 95% 29.0 mph SSE46.7 kmh SSE 44.0 mph70.8 kmh 29.55 in1000.7 mb 0.04 in1.0 mm 0.00 in0.0 mm 0.06 in1.5 mm
02:00 PM 49.1°F9.5°C 47.7°F8.7°C 95% 30.0 mph SSE48.3 kmh SSE 44.0 mph70.8 kmh 29.55 in1000.7 mb 0.04 in1.0 mm 0.00 in0.0 mm 0.06 in1.5 mm
02:03 PM 49.1°F9.5°C 47.7°F8.7°C 95% 31.0 mph SSE49.9 kmh SSE 48.0 mph77.2 kmh 29.54 in1000.3 mb 0.04 in1.0 mm 0.00 in0.0 mm 0.06 in1.5 mm
02:06 PM 49.1°F9.5°C 47.7°F8.7°C 95% 31.0 mph SSE49.9 kmh SSE 48.0 mph77.2 kmh 29.55 in1000.7 mb 0.04 in1.0 mm 0.00 in0.0 mm 0.06 in1.5 mm
02:09 PM 49.1°F9.5°C 47.7°F8.7°C 95% 31.0 mph S49.9 kmh S 48.0 mph77.2 kmh 29.54 in1000.3 mb 0.03 in0.8 mm 0.00 in0.0 mm 0.06 in1.5 mm
02:12 PM 49.1°F9.5°C 47.7°F8.7°C 95% 30.0 mph S48.3 kmh S 48.0 mph77.2 kmh 29.55 in1000.7 mb 0.03 in0.8 mm 0.00 in0.0 mm 0.06 in1.5 mm
02:15 PM 49.3°F9.6°C 47.8°F8.8°C 95% 29.0 mph S46.7 kmh S 48.0 mph77.2 kmh 29.55 in1000.7 mb 0.03 in0.8 mm 0.00 in0.0 mm 0.06 in1.5 mm
02:18 PM 49.3°F9.6°C 47.8°F8.8°C 95% 29.0 mph S46.7 kmh S 41.0 mph66.0 kmh 29.54 in1000.3 mb 0.02 in0.5 mm 0.00 in0.0 mm 0.06 in1.5 mm
02:21 PM 49.3°F9.6°C 47.8°F8.8°C 95% 29.0 mph SSE46.7 kmh SSE 41.0 mph66.0 kmh 29.54 in1000.3 mb 0.02 in0.5 mm 0.00 in0.0 mm 0.06 in1.5 mm
02:24 PM 49.3°F9.6°C 47.8°F8.8°C 95% 30.0 mph SSE48.3 kmh SSE 46.0 mph74.0 kmh 29.54 in1000.3 mb 0.01 in0.3 mm 0.00 in0.0 mm 0.06 in1.5 mm
02:27 PM 49.3°F9.6°C 47.8°F8.8°C 95% 30.0 mph S48.3 kmh S 46.0 mph74.0 kmh 29.54 in1000.3 mb 0.01 in0.3 mm 0.00 in0.0 mm 0.06 in1.5 mm
02:30 PM 49.3°F9.6°C 47.8°F8.8°C 95% 29.0 mph S46.7 kmh S 46.0 mph74.0 kmh 29.54 in1000.3 mb 0.00 in0.0 mm 0.00 in0.0 mm 0.06 in1.5 mm
02:33 PM 49.3°F9.6°C 47.8°F8.8°C 95% 30.0 mph S48.3 kmh S 48.0 mph77.2 kmh 29.54 in1000.3 mb 0.00 in0.0 mm 0.00 in0.0 mm 0.06 in1.5 mm
02:36 PM 49.3°F9.6°C 47.8°F8.8°C 95% 30.0 mph S48.3 kmh S 48.0 mph77.2 kmh 29.54 in1000.3 mb 0.00 in0.0 mm 0.00 in0.0 mm 0.06 in1.5 mm
02:39 PM 49.5°F9.7°C 48.0°F8.9°C 95% 31.0 mph SSE49.9 kmh SSE 48.0 mph77.2 kmh 29.53 in1000.0 mb 0.01 in0.3 mm 0.20 in5.1 mm 0.06 in1.5 mm
02:42 PM 49.5°F9.7°C 48.0°F8.9°C 95% 30.0 mph SSE48.3 kmh SSE 44.0 mph70.8 kmh 29.53 in1000.0 mb 0.02 in0.5 mm 0.20 in5.1 mm 0.07 in1.8 mm
02:45 PM 49.5°F9.7°C 48.0°F8.9°C 95% 30.0 mph SSE48.3 kmh SSE 44.0 mph70.8 kmh 29.53 in1000.0 mb 0.02 in0.5 mm 0.00 in0.0 mm 0.07 in1.8 mm
02:48 PM 49.5°F9.7°C 48.0°F8.9°C 95% 31.0 mph SSE49.9 kmh SSE 44.0 mph70.8 kmh 29.53 in1000.0 mb 0.02 in0.5 mm 0.00 in0.0 mm 0.07 in1.8 mm
02:51 PM 49.5°F9.7°C 48.0°F8.9°C 95% 30.0 mph S48.3 kmh S 44.0 mph70.8 kmh 29.53 in1000.0 mb 0.02 in0.5 mm 0.00 in0.0 mm 0.07 in1.8 mm
02:54 PM 49.5°F9.7°C 48.0°F8.9°C 95% 29.0 mph S46.7 kmh S 42.0 mph67.6 kmh 29.53 in1000.0 mb 0.02 in0.5 mm 0.00 in0.0 mm 0.07 in1.8 mm
02:57 PM 49.5°F9.7°C 48.0°F8.9°C 95% 30.0 mph S48.3 kmh S 48.0 mph77.2 kmh 29.52 in999.7 mb 0.02 in0.5 mm 0.00 in0.0 mm 0.07 in1.8 mm
03:00 PM 49.5°F9.7°C 48.0°F8.9°C 95% 30.0 mph S48.3 kmh S 48.0 mph77.2 kmh 29.53 in1000.0 mb 0.02 in0.5 mm 0.00 in0.0 mm 0.07 in1.8 mm
03:03 PM 49.5°F9.7°C 48.2°F9.0°C 95% 30.0 mph S48.3 kmh S 48.0 mph77.2 kmh 29.53 in1000.0 mb 0.02 in0.5 mm 0.00 in0.0 mm 0.07 in1.8 mm
03:06 PM 49.5°F9.7°C 48.2°F9.0°C 95% 30.0 mph S48.3 kmh S 48.0 mph77.2 kmh 29.52 in999.7 mb 0.02 in0.5 mm 0.00 in0.0 mm 0.07 in1.8 mm
03:09 PM 49.5°F9.7°C 48.2°F9.0°C 95% 29.0 mph S46.7 kmh S 43.0 mph69.2 kmh 29.52 in999.7 mb 0.02 in0.5 mm 0.00 in0.0 mm 0.07 in1.8 mm
03:12 PM 49.5°F9.7°C 48.2°F9.0°C 95% 30.0 mph S48.3 kmh S 42.0 mph67.6 kmh 29.52 in999.7 mb 0.02 in0.5 mm 0.00 in0.0 mm 0.07 in1.8 mm
03:15 PM 49.5°F9.7°C 48.2°F9.0°C 95% 30.0 mph S48.3 kmh S 42.0 mph67.6 kmh 29.52 in999.7 mb 0.02 in0.5 mm 0.00 in0.0 mm 0.07 in1.8 mm
03:18 PM 49.5°F9.7°C 48.2°F9.0°C 95% 30.0 mph S48.3 kmh S 53.0 mph85.3 kmh 29.52 in999.7 mb 0.02 in0.5 mm 0.00 in0.0 mm 0.07 in1.8 mm
03:21 PM 49.5°F9.7°C 48.2°F9.0°C 95% 30.0 mph S48.3 kmh S 53.0 mph85.3 kmh 29.52 in999.7 mb 0.02 in0.5 mm 0.00 in0.0 mm 0.07 in1.8 mm
03:24 PM 49.5°F9.7°C 48.2°F9.0°C 95% 31.0 mph S49.9 kmh S 53.0 mph85.3 kmh 29.52 in999.7 mb 0.02 in0.5 mm 0.00 in0.0 mm 0.08 in2.0 mm
03:27 PM 49.5°F9.7°C 48.2°F9.0°C 95% 31.0 mph S49.9 kmh S 53.0 mph85.3 kmh 29.52 in999.7 mb 0.03 in0.8 mm 0.20 in5.1 mm 0.09 in2.3 mm
03:30 PM 49.5°F9.7°C 48.2°F9.0°C 95% 31.0 mph S49.9 kmh S 49.0 mph78.9 kmh 29.52 in999.7 mb 0.04 in1.0 mm 0.20 in5.1 mm 0.09 in2.3 mm
03:33 PM 49.5°F9.7°C 48.2°F9.0°C 95% 32.0 mph S51.5 kmh S 51.0 mph82.1 kmh 29.52 in999.7 mb 0.05 in1.3 mm 0.20 in5.1 mm 0.10 in2.5 mm
03:36 PM 49.5°F9.7°C 48.2°F9.0°C 95% 30.0 mph S48.3 kmh S 51.0 mph82.1 kmh 29.52 in999.7 mb 0.05 in1.3 mm 0.00 in0.0 mm 0.10 in2.5 mm
03:39 PM 49.5°F9.7°C 48.2°F9.0°C 95% 31.0 mph S49.9 kmh S 51.0 mph82.1 kmh 29.52 in999.7 mb 0.05 in1.3 mm 0.00 in0.0 mm 0.11 in2.8 mm
03:42 PM 49.5°F9.7°C 48.0°F8.9°C 95% 30.0 mph S48.3 kmh S 46.0 mph74.0 kmh 29.51 in999.3 mb 0.04 in1.0 mm 0.00 in0.0 mm 0.11 in2.8 mm
03:45 PM 49.5°F9.7°C 48.2°F9.0°C 95% 30.0 mph S48.3 kmh S 42.0 mph67.6 kmh 29.51 in999.3 mb 0.04 in1.0 mm 0.00 in0.0 mm 0.11 in2.8 mm
03:48 PM 49.5°F9.7°C 48.0°F8.9°C 95% 30.0 mph S48.3 kmh S 46.0 mph74.0 kmh 29.52 in999.7 mb 0.05 in1.3 mm 0.20 in5.1 mm 0.12 in3.0 mm
03:51 PM 49.5°F9.7°C 48.0°F8.9°C 95% 30.0 mph S48.3 kmh S 46.0 mph74.0 kmh 29.51 in999.3 mb 0.05 in1.3 mm 0.00 in0.0 mm 0.12 in3.0 mm
03:54 PM 49.5°F9.7°C 48.0°F8.9°C 95% 30.0 mph S48.3 kmh S 46.0 mph74.0 kmh 29.51 in999.3 mb 0.05 in1.3 mm 0.00 in0.0 mm 0.12 in3.0 mm
03:57 PM 49.5°F9.7°C 48.0°F8.9°C 95% 31.0 mph SSE49.9 kmh SSE 46.0 mph74.0 kmh 29.51 in999.3 mb 0.06 in1.5 mm 0.20 in5.1 mm 0.13 in3.3 mm
04:00 PM 49.5°F9.7°C 48.0°F8.9°C 95% 31.0 mph S49.9 kmh S 45.0 mph72.4 kmh 29.50 in999.0 mb 0.06 in1.5 mm 0.00 in0.0 mm 0.13 in3.3 mm
04:03 PM 49.5°F9.7°C 48.0°F8.9°C 95% 32.0 mph S51.5 kmh S 45.0 mph72.4 kmh 29.50 in999.0 mb 0.06 in1.5 mm 0.00 in0.0 mm 0.13 in3.3 mm
04:06 PM 49.5°F9.7°C 48.0°F8.9°C 95% 32.0 mph S51.5 kmh S 47.0 mph75.6 kmh 29.50 in999.0 mb 0.06 in1.5 mm 0.00 in0.0 mm 0.13 in3.3 mm
04:09 PM 49.5°F9.7°C 48.2°F9.0°C 95% 32.0 mph S51.5 kmh S 47.0 mph75.6 kmh 29.50 in999.0 mb 0.06 in1.5 mm 0.00 in0.0 mm 0.13 in3.3 mm
04:12 PM 49.5°F9.7°C 48.2°F9.0°C 95% 33.0 mph SSE53.1 kmh SSE 47.0 mph75.6 kmh 29.50 in999.0 mb 0.06 in1.5 mm 0.00 in0.0 mm 0.13 in3.3 mm
04:15 PM 49.5°F9.7°C 48.2°F9.0°C 95% 33.0 mph SSE53.1 kmh SSE 51.0 mph82.1 kmh 29.50 in999.0 mb 0.07 in1.8 mm 0.20 in5.1 mm 0.14 in3.6 mm
04:18 PM 49.5°F9.7°C 48.2°F9.0°C 95% 33.0 mph SSE53.1 kmh SSE 51.0 mph82.1 kmh 29.49 in998.6 mb 0.08 in2.0 mm 0.20 in5.1 mm 0.15 in3.8 mm
04:21 PM 49.5°F9.7°C 48.0°F8.9°C 95% 34.0 mph SSE54.7 kmh SSE 51.0 mph82.1 kmh 29.49 in998.6 mb 0.08 in2.0 mm 0.00 in0.0 mm 0.15 in3.8 mm
04:24 PM 49.5°F9.7°C 48.0°F8.9°C 95% 34.0 mph SSE54.7 kmh SSE 50.0 mph80.5 kmh 29.49 in998.6 mb 0.07 in1.8 mm 0.00 in0.0 mm 0.15 in3.8 mm
04:27 PM 49.5°F9.7°C 48.0°F8.9°C 95% 34.0 mph SSE54.7 kmh SSE 50.0 mph80.5 kmh 29.49 in998.6 mb 0.06 in1.5 mm 0.00 in0.0 mm 0.15 in3.8 mm
04:30 PM 49.3°F9.6°C 47.8°F8.8°C 95% 33.0 mph SSE53.1 kmh SSE 49.0 mph78.9 kmh 29.49 in998.6 mb 0.06 in1.5 mm 0.00 in0.0 mm 0.16 in4.1 mm
04:33 PM 49.3°F9.6°C 47.8°F8.8°C 95% 33.0 mph SSE53.1 kmh SSE 45.0 mph72.4 kmh 29.49 in998.6 mb 0.06 in1.5 mm 0.00 in0.0 mm 0.16 in4.1 mm
04:36 PM 49.5°F9.7°C 48.0°F8.9°C 95% 33.0 mph SSE53.1 kmh SSE 48.0 mph77.2 kmh 29.49 in998.6 mb 0.06 in1.5 mm 0.00 in0.0 mm 0.16 in4.1 mm
04:39 PM 49.5°F9.7°C 48.0°F8.9°C 95% 33.0 mph SSE53.1 kmh SSE 48.0 mph77.2 kmh 29.48 in998.3 mb 0.05 in1.3 mm 0.00 in0.0 mm 0.16 in4.1 mm
04:42 PM 49.5°F9.7°C 48.0°F8.9°C 95% 33.0 mph SSE53.1 kmh SSE 48.0 mph77.2 kmh 29.49 in998.6 mb 0.06 in1.5 mm 0.20 in5.1 mm 0.17 in4.3 mm
04:45 PM 49.3°F9.6°C 47.8°F8.8°C 95% 33.0 mph SSE53.1 kmh SSE 52.0 mph83.7 kmh 29.48 in998.3 mb 0.06 in1.5 mm 0.00 in0.0 mm 0.17 in4.3 mm
04:48 PM 49.3°F9.6°C 47.8°F8.8°C 95% 34.0 mph SSE54.7 kmh SSE 52.0 mph83.7 kmh 29.48 in998.3 mb 0.06 in1.5 mm 0.00 in0.0 mm 0.17 in4.3 mm
04:51 PM 49.5°F9.7°C 48.0°F8.9°C 95% 34.0 mph SSE54.7 kmh SSE 52.0 mph83.7 kmh 29.48 in998.3 mb 0.06 in1.5 mm 0.00 in0.0 mm 0.17 in4.3 mm
04:54 PM 49.5°F9.7°C 48.0°F8.9°C 95% 34.0 mph SSE54.7 kmh SSE 52.0 mph83.7 kmh 29.48 in998.3 mb 0.06 in1.5 mm 0.00 in0.0 mm 0.18 in4.6 mm
04:57 PM 49.5°F9.7°C 48.0°F8.9°C 95% 34.0 mph SSE54.7 kmh SSE 49.0 mph78.9 kmh 29.48 in998.3 mb 0.06 in1.5 mm 0.00 in0.0 mm 0.18 in4.6 mm
05:00 PM 49.5°F9.7°C 48.4°F9.1°C 96% 34.0 mph SSE54.7 kmh SSE 50.0 mph80.5 kmh 29.47 in998.0 mb 0.05 in1.3 mm 0.00 in0.0 mm 0.18 in4.6 mm
05:03 PM 49.5°F9.7°C 48.4°F9.1°C 96% 33.0 mph SSE53.1 kmh SSE 50.0 mph80.5 kmh 29.47 in998.0 mb 0.06 in1.5 mm 0.20 in5.1 mm 0.19 in4.8 mm
05:06 PM 49.5°F9.7°C 48.4°F9.1°C 96% 33.0 mph SSE53.1 kmh SSE 50.0 mph80.5 kmh 29.47 in998.0 mb 0.06 in1.5 mm 0.00 in0.0 mm 0.19 in4.8 mm
05:09 PM 49.6°F9.8°C 48.6°F9.2°C 96% 32.0 mph SSE51.5 kmh SSE 49.0 mph78.9 kmh 29.47 in998.0 mb 0.06 in1.5 mm 0.00 in0.0 mm 0.20 in5.1 mm
05:12 PM 49.5°F9.7°C 48.4°F9.1°C 96% 33.0 mph SSE53.1 kmh SSE 52.0 mph83.7 kmh 29.47 in998.0 mb 0.06 in1.5 mm 0.00 in0.0 mm 0.20 in5.1 mm
05:15 PM 49.5°F9.7°C 48.4°F9.1°C 96% 35.0 mph SSE56.3 kmh SSE 52.0 mph83.7 kmh 29.47 in998.0 mb 0.06 in1.5 mm 0.00 in0.0 mm 0.20 in5.1 mm
05:18 PM 49.5°F9.7°C 48.4°F9.1°C 96% 36.0 mph SSE57.9 kmh SSE 52.0 mph83.7 kmh 29.47 in998.0 mb 0.05 in1.3 mm 0.00 in0.0 mm 0.20 in5.1 mm
05:21 PM 49.5°F9.7°C 48.2°F9.0°C 95% 37.0 mph SSE59.5 kmh SSE 52.0 mph83.7 kmh 29.47 in998.0 mb 0.06 in1.5 mm 0.20 in5.1 mm 0.20 in5.1 mm
05:24 PM 49.5°F9.7°C 48.2°F9.0°C 95% 36.0 mph SSE57.9 kmh SSE 51.0 mph82.1 kmh 29.47 in998.0 mb 0.06 in1.5 mm 0.00 in0.0 mm 0.21 in5.3 mm
05:27 PM 49.5°F9.7°C 48.2°F9.0°C 95% 35.0 mph SSE56.3 kmh SSE 51.0 mph82.1 kmh 29.46 in997.6 mb 0.06 in1.5 mm 0.00 in0.0 mm 0.21 in5.3 mm
05:30 PM 49.5°F9.7°C 48.4°F9.1°C 96% 34.0 mph S54.7 kmh S 48.0 mph77.2 kmh 29.46 in997.6 mb 0.06 in1.5 mm 0.00 in0.0 mm 0.21 in5.3 mm
05:33 PM 49.5°F9.7°C 48.4°F9.1°C 96% 33.0 mph S53.1 kmh S 49.0 mph78.9 kmh 29.47 in998.0 mb 0.06 in1.5 mm 0.00 in0.0 mm 0.21 in5.3 mm
05:36 PM 49.6°F9.8°C 48.6°F9.2°C 96% 33.0 mph SSE53.1 kmh SSE 49.0 mph78.9 kmh 29.47 in998.0 mb 0.06 in1.5 mm 0.00 in0.0 mm 0.22 in5.6 mm
05:39 PM 49.6°F9.8°C 48.6°F9.2°C 96% 34.0 mph SSE54.7 kmh SSE 49.0 mph78.9 kmh 29.46 in997.6 mb 0.06 in1.5 mm 0.00 in0.0 mm 0.22 in5.6 mm
05:48 PM 49.6°F9.8°C 48.5°F9.2°C 96% 44.0 mph SSE70.8 kmh SSE 52.0 mph83.7 kmh 29.47 in998.0 mb 0.06 in1.5 mm 0.00 in0.0 mm 0.24 in6.1 mm
05:49 PM 49.6°F9.8°C 48.5°F9.2°C 96% 46.0 mph SSE74.0 kmh SSE 52.0 mph83.7 kmh 29.47 in998.0 mb 0.06 in1.5 mm 0.00 in0.0 mm 0.24 in6.1 mm
05:50 PM 49.6°F9.8°C 48.5°F9.2°C 96% 46.0 mph SSE74.0 kmh SSE 52.0 mph83.7 kmh 29.47 in998.0 mb 0.06 in1.5 mm 0.00 in0.0 mm 0.24 in6.1 mm
05:51 PM 49.6°F9.8°C 48.5°F9.2°C 96% 45.0 mph S72.4 kmh S 52.0 mph83.7 kmh 29.47 in998.0 mb 0.07 in1.8 mm 0.60 in15.2 mm 0.24 in6.1 mm
05:52 PM 49.6°F9.8°C 48.5°F9.2°C 96% 44.0 mph SSE70.8 kmh SSE 52.0 mph83.7 kmh 29.47 in998.0 mb 0.07 in1.8 mm 0.00 in0.0 mm 0.24 in6.1 mm
05:53 PM 49.6°F9.8°C 48.5°F9.2°C 96% 44.0 mph SSE70.8 kmh SSE 52.0 mph83.7 kmh 29.47 in998.0 mb 0.07 in1.8 mm 0.00 in0.0 mm 0.24 in6.1 mm
05:54 PM 49.6°F9.8°C 48.5°F9.2°C 96% 44.0 mph SSE70.8 kmh SSE 52.0 mph83.7 kmh 29.47 in998.0 mb 0.06 in1.5 mm 0.00 in0.0 mm 0.24 in6.1 mm
05:55 PM 49.6°F9.8°C 48.5°F9.2°C 96% 43.0 mph S69.2 kmh S 52.0 mph83.7 kmh 29.47 in998.0 mb 0.06 in1.5 mm 0.00 in0.0 mm 0.24 in6.1 mm
05:56 PM 49.6°F9.8°C 48.5°F9.2°C 96% 43.0 mph S69.2 kmh S 50.0 mph80.5 kmh 29.46 in997.6 mb 0.06 in1.5 mm 0.00 in0.0 mm 0.24 in6.1 mm
05:57 PM 49.6°F9.8°C 48.5°F9.2°C 96% 44.0 mph S70.8 kmh S 50.0 mph80.5 kmh 29.47 in998.0 mb 0.06 in1.5 mm 0.00 in0.0 mm 0.24 in6.1 mm
05:58 PM 49.6°F9.8°C 48.5°F9.2°C 96% 44.0 mph S70.8 kmh S 50.0 mph80.5 kmh 29.47 in998.0 mb 0.06 in1.5 mm 0.00 in0.0 mm 0.24 in6.1 mm
05:59 PM 49.7°F9.8°C 48.6°F9.2°C 96% 44.0 mph SSE70.8 kmh SSE 50.0 mph80.5 kmh 29.47 in998.0 mb 0.07 in1.8 mm 0.60 in15.2 mm 0.25 in6.4 mm
06:00 PM 49.7°F9.8°C 48.6°F9.2°C 96% 46.0 mph SSE74.0 kmh SSE 52.0 mph83.7 kmh 29.46 in997.6 mb 0.07 in1.8 mm 0.00 in0.0 mm 0.25 in6.4 mm
06:02 PM 49.6°F9.8°C 48.5°F9.2°C 96% 34.0 mph SSE54.7 kmh SSE 50.0 mph80.5 kmh 29.46 in997.6 mb 0.06 in1.5 mm 0.00 in0.0 mm 0.23 in5.8 mm
06:03 PM 49.6°F9.8°C 48.6°F9.2°C 96% 37.0 mph S59.5 kmh S 52.0 mph83.7 kmh 29.46 in997.6 mb 0.06 in1.5 mm 0.00 in0.0 mm 0.25 in6.4 mm
06:06 PM 49.8°F9.9°C 48.7°F9.3°C 96% 35.0 mph S56.3 kmh S 52.0 mph83.7 kmh 29.46 in997.6 mb 0.07 in1.8 mm 0.20 in5.1 mm 0.26 in6.6 mm
06:09 PM 49.8°F9.9°C 48.7°F9.3°C 96% 33.0 mph S53.1 kmh S 52.0 mph83.7 kmh 29.47 in998.0 mb 0.07 in1.8 mm 0.00 in0.0 mm 0.27 in6.9 mm
06:12 PM 49.8°F9.9°C 48.7°F9.3°C 96% 34.0 mph S54.7 kmh S 52.0 mph83.7 kmh 29.47 in998.0 mb 0.08 in2.0 mm 0.20 in5.1 mm 0.28 in7.1 mm
06:15 PM 49.8°F9.9°C 48.7°F9.3°C 96% 33.0 mph S53.1 kmh S 52.0 mph83.7 kmh 29.46 in997.6 mb 0.08 in2.0 mm 0.00 in0.0 mm 0.28 in7.1 mm
06:18 PM 49.8°F9.9°C 48.7°F9.3°C 96% 33.0 mph S53.1 kmh S 52.0 mph83.7 kmh 29.46 in997.6 mb 0.07 in1.8 mm 0.00 in0.0 mm 0.28 in7.1 mm
06:21 PM 49.8°F9.9°C 48.7°F9.3°C 96% 33.0 mph S53.1 kmh S 52.0 mph83.7 kmh 29.46 in997.6 mb 0.08 in2.0 mm 0.20 in5.1 mm 0.28 in7.1 mm
06:24 PM 49.6°F9.8°C 48.6°F9.2°C 96% 33.0 mph S53.1 kmh S 48.0 mph77.2 kmh 29.46 in997.6 mb 0.08 in2.0 mm 0.00 in0.0 mm 0.29 in7.4 mm
06:27 PM 49.6°F9.8°C 48.6°F9.2°C 96% 34.0 mph S54.7 kmh S 46.0 mph74.0 kmh 29.45 in997.3 mb 0.08 in2.0 mm 0.00 in0.0 mm 0.29 in7.4 mm
06:30 PM 49.6°F9.8°C 48.6°F9.2°C 96% 33.0 mph SSE53.1 kmh SSE 46.0 mph74.0 kmh 29.46 in997.6 mb 0.09 in2.3 mm 0.20 in5.1 mm 0.30 in7.6 mm
06:33 PM 49.6°F9.8°C 48.6°F9.2°C 96% 33.0 mph SSE53.1 kmh SSE 47.0 mph75.6 kmh 29.46 in997.6 mb 0.09 in2.3 mm 0.00 in0.0 mm 0.31 in7.9 mm
06:36 PM 49.6°F9.8°C 48.6°F9.2°C 96% 33.0 mph S53.1 kmh S 47.0 mph75.6 kmh 29.46 in997.6 mb 0.09 in2.3 mm 0.00 in0.0 mm 0.31 in7.9 mm
06:39 PM 49.6°F9.8°C 48.6°F9.2°C 96% 33.0 mph SSE53.1 kmh SSE 47.0 mph75.6 kmh 29.45 in997.3 mb 0.09 in2.3 mm 0.00 in0.0 mm 0.31 in7.9 mm
06:42 PM 49.8°F9.9°C 48.7°F9.3°C 96% 33.0 mph S53.1 kmh S 47.0 mph75.6 kmh 29.45 in997.3 mb 0.09 in2.3 mm 0.00 in0.0 mm 0.32 in8.1 mm
06:45 PM 49.8°F9.9°C 48.7°F9.3°C 96% 34.0 mph S54.7 kmh S 53.0 mph85.3 kmh 29.45 in997.3 mb 0.09 in2.3 mm 0.00 in0.0 mm 0.32 in8.1 mm
06:48 PM 49.8°F9.9°C 48.7°F9.3°C 96% 34.0 mph SSE54.7 kmh SSE 53.0 mph85.3 kmh 29.44 in997.0 mb 0.10 in2.5 mm 0.20 in5.1 mm 0.34 in8.6 mm
06:51 PM 49.8°F9.9°C 48.7°F9.3°C 96% 34.0 mph SSE54.7 kmh SSE 53.0 mph85.3 kmh 29.45 in997.3 mb 0.09 in2.3 mm 0.00 in0.0 mm 0.34 in8.6 mm
06:54 PM 49.8°F9.9°C 48.7°F9.3°C 96% 34.0 mph SSE54.7 kmh SSE 53.0 mph85.3 kmh 29.45 in997.3 mb 0.11 in2.8 mm 0.40 in10.2 mm 0.35 in8.9 mm
06:57 PM 49.8°F9.9°C 48.7°F9.3°C 96% 33.0 mph SSE53.1 kmh SSE 53.0 mph85.3 kmh 29.45 in997.3 mb 0.11 in2.8 mm 0.00 in0.0 mm 0.35 in8.9 mm
07:00 PM 49.8°F9.9°C 48.7°F9.3°C 96% 32.0 mph SSE51.5 kmh SSE 48.0 mph77.2 kmh 29.45 in997.3 mb 0.10 in2.5 mm 0.00 in0.0 mm 0.35 in8.9 mm
07:03 PM 49.8°F9.9°C 48.7°F9.3°C 96% 32.0 mph SSE51.5 kmh SSE 48.0 mph77.2 kmh 29.45 in997.3 mb 0.10 in2.5 mm 0.00 in0.0 mm 0.35 in8.9 mm
07:06 PM 49.8°F9.9°C 48.7°F9.3°C 96% 31.0 mph SSE49.9 kmh SSE 49.0 mph78.9 kmh 29.45 in997.3 mb 0.09 in2.3 mm 0.00 in0.0 mm 0.35 in8.9 mm
07:09 PM 49.8°F9.9°C 48.7°F9.3°C 96% 33.0 mph S53.1 kmh S 49.0 mph78.9 kmh 29.45 in997.3 mb 0.09 in2.3 mm 0.00 in0.0 mm 0.35 in8.9 mm
07:12 PM 49.8°F9.9°C 48.7°F9.3°C 96% 32.0 mph S51.5 kmh S 49.0 mph78.9 kmh 29.45 in997.3 mb 0.09 in2.3 mm 0.00 in0.0 mm 0.36 in9.1 mm
07:15 PM 49.8°F9.9°C 48.7°F9.3°C 96% 33.0 mph S53.1 kmh S 49.0 mph78.9 kmh 29.45 in997.3 mb 0.09 in2.3 mm 0.00 in0.0 mm 0.37 in9.4 mm
07:18 PM 49.8°F9.9°C 48.7°F9.3°C 96% 31.0 mph S49.9 kmh S 47.0 mph75.6 kmh 29.45 in997.3 mb 0.09 in2.3 mm 0.00 in0.0 mm 0.37 in9.4 mm
07:21 PM 49.8°F9.9°C 48.7°F9.3°C 96% 31.0 mph S49.9 kmh S 47.0 mph75.6 kmh 29.45 in997.3 mb 0.09 in2.3 mm 0.00 in0.0 mm 0.38 in9.7 mm
07:24 PM 49.8°F9.9°C 48.7°F9.3°C 96% 31.0 mph S49.9 kmh S 45.0 mph72.4 kmh 29.45 in997.3 mb 0.09 in2.3 mm 0.00 in0.0 mm 0.39 in9.9 mm
07:27 PM 49.8°F9.9°C 48.7°F9.3°C 96% 31.0 mph S49.9 kmh S 45.0 mph72.4 kmh 29.45 in997.3 mb 0.09 in2.3 mm 0.00 in0.0 mm 0.39 in9.9 mm
07:30 PM 49.8°F9.9°C 48.7°F9.3°C 96% 32.0 mph SSE51.5 kmh SSE 46.0 mph74.0 kmh 29.45 in997.3 mb 0.10 in2.5 mm 0.20 in5.1 mm 0.40 in10.2 mm
07:33 PM 49.8°F9.9°C 48.7°F9.3°C 96% 32.0 mph SSE51.5 kmh SSE 46.0 mph74.0 kmh 29.45 in997.3 mb 0.09 in2.3 mm 0.00 in0.0 mm 0.40 in10.2 mm
07:36 PM 49.8°F9.9°C 48.7°F9.3°C 96% 32.0 mph SSE51.5 kmh SSE 46.0 mph74.0 kmh 29.45 in997.3 mb 0.09 in2.3 mm 0.00 in0.0 mm 0.41 in10.4 mm
07:39 PM 49.8°F9.9°C 48.7°F9.3°C 96% 32.0 mph S51.5 kmh S 46.0 mph74.0 kmh 29.45 in997.3 mb 0.09 in2.3 mm 0.00 in0.0 mm 0.42 in10.7 mm
07:42 PM 49.8°F9.9°C 48.7°F9.3°C 96% 33.0 mph S53.1 kmh S 47.0 mph75.6 kmh 29.45 in997.3 mb 0.10 in2.5 mm 0.20 in5.1 mm 0.43 in10.9 mm
07:45 PM 49.8°F9.9°C 48.7°F9.3°C 96% 33.0 mph S53.1 kmh S 52.0 mph83.7 kmh 29.44 in997.0 mb 0.11 in2.8 mm 0.20 in5.1 mm 0.43 in10.9 mm
07:48 PM 49.8°F9.9°C 48.7°F9.3°C 96% 32.0 mph SSE51.5 kmh SSE 52.0 mph83.7 kmh 29.45 in997.3 mb 0.10 in2.5 mm 0.00 in0.0 mm 0.44 in11.2 mm
07:51 PM 49.8°F9.9°C 48.7°F9.3°C 96% 33.0 mph SSE53.1 kmh SSE 52.0 mph83.7 kmh 29.45 in997.3 mb 0.11 in2.8 mm 0.20 in5.1 mm 0.45 in11.4 mm
07:54 PM 49.8°F9.9°C 48.7°F9.3°C 96% 33.0 mph SSE53.1 kmh SSE 51.0 mph82.1 kmh 29.44 in997.0 mb 0.09 in2.3 mm 0.00 in0.0 mm 0.45 in11.4 mm
07:57 PM 49.8°F9.9°C 48.7°F9.3°C 96% 34.0 mph SSE54.7 kmh SSE 49.0 mph78.9 kmh 29.45 in997.3 mb 0.10 in2.5 mm 0.20 in5.1 mm 0.46 in11.7 mm
08:00 PM 49.8°F9.9°C 48.7°F9.3°C 96% 34.0 mph SSE54.7 kmh SSE 47.0 mph75.6 kmh 29.45 in997.3 mb 0.11 in2.8 mm 0.01 in0.3 mm 0.46 in11.7 mm
08:03 PM 49.8°F9.9°C 48.7°F9.3°C 96% 34.0 mph SSE54.7 kmh SSE 47.0 mph75.6 kmh 29.44 in997.0 mb 0.12 in3.0 mm 0.20 in5.1 mm 0.47 in11.9 mm
08:06 PM 49.8°F9.9°C 48.7°F9.3°C 96% 33.0 mph SSE53.1 kmh SSE 46.0 mph74.0 kmh 29.44 in997.0 mb 0.13 in3.3 mm 0.20 in5.1 mm 0.48 in12.2 mm
08:09 PM 49.8°F9.9°C 48.7°F9.3°C 96% 34.0 mph S54.7 kmh S 46.0 mph74.0 kmh 29.44 in997.0 mb 0.13 in3.3 mm 0.00 in0.0 mm 0.48 in12.2 mm
08:12 PM 49.8°F9.9°C 48.7°F9.3°C 96% 34.0 mph SSE54.7 kmh SSE 48.0 mph77.2 kmh 29.45 in997.3 mb 0.13 in3.3 mm 0.00 in0.0 mm 0.49 in12.4 mm
08:15 PM 49.8°F9.9°C 48.7°F9.3°C 96% 34.0 mph SSE54.7 kmh SSE 49.0 mph78.9 kmh 29.44 in997.0 mb 0.13 in3.3 mm 0.00 in0.0 mm 0.50 in12.7 mm
08:18 PM 49.6°F9.8°C 48.6°F9.2°C 96% 34.0 mph SSE54.7 kmh SSE 49.0 mph78.9 kmh 29.44 in997.0 mb 0.13 in3.3 mm 0.00 in0.0 mm 0.50 in12.7 mm
08:21 PM 49.8°F9.9°C 48.7°F9.3°C 96% 34.0 mph SSE54.7 kmh SSE 49.0 mph78.9 kmh 29.44 in997.0 mb 0.13 in3.3 mm 0.00 in0.0 mm 0.50 in12.7 mm
08:24 PM 49.6°F9.8°C 48.6°F9.2°C 96% 35.0 mph SSE56.3 kmh SSE 49.0 mph78.9 kmh 29.44 in997.0 mb 0.13 in3.3 mm 0.00 in0.0 mm 0.51 in13.0 mm
08:27 PM 49.8°F9.9°C 48.7°F9.3°C 96% 35.0 mph SSE56.3 kmh SSE 51.0 mph82.1 kmh 29.43 in996.6 mb 0.12 in3.0 mm 0.00 in0.0 mm 0.51 in13.0 mm
08:30 PM 49.8°F9.9°C 48.7°F9.3°C 96% 35.0 mph SSE56.3 kmh SSE 51.0 mph82.1 kmh 29.43 in996.6 mb 0.12 in3.0 mm 0.00 in0.0 mm 0.52 in13.2 mm
08:33 PM 49.8°F9.9°C 48.7°F9.3°C 96% 36.0 mph SSE57.9 kmh SSE 51.0 mph82.1 kmh 29.43 in996.6 mb 0.11 in2.8 mm 0.00 in0.0 mm 0.52 in13.2 mm
08:36 PM 49.8°F9.9°C 48.7°F9.3°C 96% 36.0 mph SSE57.9 kmh SSE 51.0 mph82.1 kmh 29.43 in996.6 mb 0.12 in3.0 mm 0.20 in5.1 mm 0.53 in13.5 mm
08:39 PM 49.8°F9.9°C 48.9°F9.4°C 97% 35.0 mph S56.3 kmh S 50.0 mph80.5 kmh 29.43 in996.6 mb 0.11 in2.8 mm 0.00 in0.0 mm 0.53 in13.5 mm
08:42 PM 49.8°F9.9°C 48.9°F9.4°C 97% 35.0 mph S56.3 kmh S 46.0 mph74.0 kmh 29.43 in996.6 mb 0.11 in2.8 mm 0.00 in0.0 mm 0.54 in13.7 mm
08:45 PM 49.8°F9.9°C 48.9°F9.4°C 97% 36.0 mph S57.9 kmh S 54.0 mph86.9 kmh 29.43 in996.6 mb 0.11 in2.8 mm 0.00 in0.0 mm 0.54 in13.7 mm
08:48 PM 49.8°F9.9°C 48.9°F9.4°C 97% 36.0 mph S57.9 kmh S 54.0 mph86.9 kmh 29.43 in996.6 mb 0.09 in2.3 mm 0.00 in0.0 mm 0.54 in13.7 mm
08:51 PM 49.8°F9.9°C 48.9°F9.4°C 97% 36.0 mph S57.9 kmh S 54.0 mph86.9 kmh 29.43 in996.6 mb 0.10 in2.5 mm 0.20 in5.1 mm 0.55 in14.0 mm
08:54 PM 49.8°F9.9°C 48.9°F9.4°C 97% 34.0 mph S54.7 kmh S 50.0 mph80.5 kmh 29.43 in996.6 mb 0.11 in2.8 mm 0.20 in5.1 mm 0.56 in14.2 mm
08:57 PM 49.8°F9.9°C 48.9°F9.4°C 97% 33.0 mph S53.1 kmh S 50.0 mph80.5 kmh 29.43 in996.6 mb 0.09 in2.3 mm 0.00 in0.0 mm 0.56 in14.2 mm
09:00 PM 49.8°F9.9°C 49.1°F9.5°C 97% 33.0 mph S53.1 kmh S 46.0 mph74.0 kmh 29.42 in996.3 mb 0.10 in2.5 mm 0.01 in0.3 mm 0.57 in14.5 mm
09:03 PM 49.8°F9.9°C 49.8°F9.9°C 100% 33.0 mph S53.1 kmh S 47.0 mph75.6 kmh 29.42 in996.3 mb 0.10 in2.5 mm 0.00 in0.0 mm 0.57 in14.5 mm
09:06 PM 49.8°F9.9°C 49.1°F9.5°C 97% 34.0 mph S54.7 kmh S 49.0 mph78.9 kmh 29.42 in996.3 mb 0.09 in2.3 mm 0.00 in0.0 mm 0.57 in14.5 mm
09:09 PM 49.8°F9.9°C 49.1°F9.5°C 97% 33.0 mph S53.1 kmh S 49.0 mph78.9 kmh 29.42 in996.3 mb 0.09 in2.3 mm 0.00 in0.0 mm 0.57 in14.5 mm
09:12 PM 50.0°F10.0°C 49.1°F9.5°C 97% 33.0 mph S53.1 kmh S 49.0 mph78.9 kmh 29.42 in996.3 mb 0.09 in2.3 mm 0.00 in0.0 mm 0.58 in14.7 mm
09:15 PM 50.0°F10.0°C 49.1°F9.5°C 97% 33.0 mph S53.1 kmh S 57.0 mph91.7 kmh 29.42 in996.3 mb 0.09 in2.3 mm 0.00 in0.0 mm 0.59 in15.0 mm
09:18 PM 50.0°F10.0°C 49.1°F9.5°C 97% 32.0 mph S51.5 kmh S 57.0 mph91.7 kmh 29.41 in995.9 mb 0.09 in2.3 mm 0.00 in0.0 mm 0.59 in15.0 mm
09:21 PM 50.0°F10.0°C 49.1°F9.5°C 97% 34.0 mph S54.7 kmh S 57.0 mph91.7 kmh 29.41 in995.9 mb 0.09 in2.3 mm 0.00 in0.0 mm 0.59 in15.0 mm
09:24 PM 50.2°F10.1°C 49.3°F9.6°C 97% 34.0 mph S54.7 kmh S 54.0 mph86.9 kmh 29.42 in996.3 mb 0.08 in2.0 mm 0.00 in0.0 mm 0.59 in15.0 mm
09:27 PM 50.2°F10.1°C 49.3°F9.6°C 97% 35.0 mph S56.3 kmh S 54.0 mph86.9 kmh 29.41 in995.9 mb 0.08 in2.0 mm 0.00 in0.0 mm 0.59 in15.0 mm
09:30 PM 50.2°F10.1°C 49.3°F9.6°C 97% 34.0 mph S54.7 kmh S 54.0 mph86.9 kmh 29.41 in995.9 mb 0.08 in2.0 mm 0.00 in0.0 mm 0.60 in15.2 mm
09:33 PM 50.2°F10.1°C 49.5°F9.7°C 97% 35.0 mph S56.3 kmh S 60.0 mph96.6 kmh 29.41 in995.9 mb 0.08 in2.0 mm 0.00 in0.0 mm 0.61 in15.5 mm
09:36 PM 50.2°F10.1°C 49.5°F9.7°C 97% 36.0 mph S57.9 kmh S 60.0 mph96.6 kmh 29.41 in995.9 mb 0.08 in2.0 mm 0.00 in0.0 mm 0.61 in15.5 mm
09:39 PM 50.2°F10.1°C 49.5°F9.7°C 97% 36.0 mph S57.9 kmh S 60.0 mph96.6 kmh 29.41 in995.9 mb 0.09 in2.3 mm 0.20 in5.1 mm 0.61 in15.5 mm
09:42 PM 50.2°F10.1°C 49.5°F9.7°C 97% 35.0 mph S56.3 kmh S 52.0 mph83.7 kmh 29.41 in995.9 mb 0.08 in2.0 mm 0.00 in0.0 mm 0.61 in15.5 mm
09:45 PM 50.2°F10.1°C 49.5°F9.7°C 97% 34.0 mph S54.7 kmh S 48.0 mph77.2 kmh 29.41 in995.9 mb 0.07 in1.8 mm 0.00 in0.0 mm 0.61 in15.5 mm
09:48 PM 50.2°F10.1°C 49.5°F9.7°C 97% 34.0 mph S54.7 kmh S 47.0 mph75.6 kmh 29.41 in995.9 mb 0.08 in2.0 mm 0.20 in5.1 mm 0.62 in15.7 mm
09:51 PM 50.2°F10.1°C 49.5°F9.7°C 97% 35.0 mph S56.3 kmh S 49.0 mph78.9 kmh 29.41 in995.9 mb 0.08 in2.0 mm 0.00 in0.0 mm 0.63 in16.0 mm
09:54 PM 50.2°F10.1°C 49.5°F9.7°C 97% 35.0 mph S56.3 kmh S 54.0 mph86.9 kmh 29.41 in995.9 mb 0.07 in1.8 mm 0.00 in0.0 mm 0.63 in16.0 mm
09:57 PM 50.4°F10.2°C 49.5°F9.7°C 97% 35.0 mph S56.3 kmh S 54.0 mph86.9 kmh 29.41 in995.9 mb 0.08 in2.0 mm 0.20 in5.1 mm 0.64 in16.3 mm
10:00 PM 50.4°F10.2°C 49.5°F9.7°C 97% 35.0 mph S56.3 kmh S 54.0 mph86.9 kmh 29.41 in995.9 mb 0.07 in1.8 mm 0.00 in0.0 mm 0.64 in16.3 mm
10:03 PM 50.4°F10.2°C 49.5°F9.7°C 97% 36.0 mph S57.9 kmh S 54.0 mph86.9 kmh 29.41 in995.9 mb 0.06 in1.5 mm 0.00 in0.0 mm 0.64 in16.3 mm
10:06 PM 50.4°F10.2°C 49.5°F9.7°C 97% 36.0 mph S57.9 kmh S 53.0 mph85.3 kmh 29.41 in995.9 mb 0.07 in1.8 mm 0.20 in5.1 mm 0.65 in16.5 mm
10:09 PM 50.4°F10.2°C 49.6°F9.8°C 97% 37.0 mph S59.5 kmh S 53.0 mph85.3 kmh 29.41 in995.9 mb 0.08 in2.0 mm 0.20 in5.1 mm 0.65 in16.5 mm
10:12 PM 50.4°F10.2°C 49.6°F9.8°C 97% 37.0 mph S59.5 kmh S 52.0 mph83.7 kmh 29.41 in995.9 mb 0.07 in1.8 mm 0.00 in0.0 mm 0.65 in16.5 mm
10:15 PM 50.4°F10.2°C 49.6°F9.8°C 97% 36.0 mph S57.9 kmh S 54.0 mph86.9 kmh 29.41 in995.9 mb 0.06 in1.5 mm 0.00 in0.0 mm 0.65 in16.5 mm
10:18 PM 50.4°F10.2°C 49.6°F9.8°C 97% 36.0 mph S57.9 kmh S 54.0 mph86.9 kmh 29.40 in995.6 mb 0.07 in1.8 mm 0.20 in5.1 mm 0.66 in16.8 mm
10:21 PM 50.4°F10.2°C 49.6°F9.8°C 97% 36.0 mph S57.9 kmh S 54.0 mph86.9 kmh 29.40 in995.6 mb 0.07 in1.8 mm 0.00 in0.0 mm 0.66 in16.8 mm
10:24 PM 50.5°F10.3°C 49.6°F9.8°C 97% 36.0 mph S57.9 kmh S 53.0 mph85.3 kmh 29.41 in995.9 mb 0.07 in1.8 mm 0.00 in0.0 mm 0.66 in16.8 mm
10:27 PM 50.5°F10.3°C 49.6°F9.8°C 97% 37.0 mph S59.5 kmh S 56.0 mph90.1 kmh 29.40 in995.6 mb 0.08 in2.0 mm 0.20 in5.1 mm 0.67 in17.0 mm
10:30 PM 50.4°F10.2°C 49.6°F9.8°C 97% 37.0 mph S59.5 kmh S 56.0 mph90.1 kmh 29.41 in995.9 mb 0.07 in1.8 mm 0.00 in0.0 mm 0.67 in17.0 mm
10:33 PM 50.4°F10.2°C 49.6°F9.8°C 97% 37.0 mph S59.5 kmh S 56.0 mph90.1 kmh 29.41 in995.9 mb 0.06 in1.5 mm 0.00 in0.0 mm 0.67 in17.0 mm
10:36 PM 50.4°F10.2°C 49.6°F9.8°C 97% 36.0 mph S57.9 kmh S 56.0 mph90.1 kmh 29.41 in995.9 mb 0.06 in1.5 mm 0.00 in0.0 mm 0.67 in17.0 mm
10:39 PM 50.4°F10.2°C 49.6°F9.8°C 97% 36.0 mph S57.9 kmh S 51.0 mph82.1 kmh 29.40 in995.6 mb 0.06 in1.5 mm 0.00 in0.0 mm 0.68 in17.3 mm
10:42 PM 50.4°F10.2°C 49.6°F9.8°C 97% 36.0 mph S57.9 kmh S 53.0 mph85.3 kmh 29.40 in995.6 mb 0.06 in1.5 mm 0.00 in0.0 mm 0.68 in17.3 mm
10:45 PM 50.4°F10.2°C 49.6°F9.8°C 97% 36.0 mph S57.9 kmh S 53.0 mph85.3 kmh 29.40 in995.6 mb 0.07 in1.8 mm 0.20 in5.1 mm 0.69 in17.5 mm
10:48 PM 50.4°F10.2°C 49.6°F9.8°C 97% 36.0 mph S57.9 kmh S 57.0 mph91.7 kmh 29.41 in995.9 mb 0.06 in1.5 mm 0.00 in0.0 mm 0.69 in17.5 mm
10:51 PM 50.4°F10.2°C 49.6°F9.8°C 97% 36.0 mph S57.9 kmh S 57.0 mph91.7 kmh 29.41 in995.9 mb 0.06 in1.5 mm 0.00 in0.0 mm 0.69 in17.5 mm
10:54 PM 50.4°F10.2°C 49.6°F9.8°C 97% 37.0 mph S59.5 kmh S 57.0 mph91.7 kmh 29.40 in995.6 mb 0.06 in1.5 mm 0.00 in0.0 mm 0.69 in17.5 mm
10:57 PM 50.4°F10.2°C 49.6°F9.8°C 97% 35.0 mph S56.3 kmh S 52.0 mph83.7 kmh 29.40 in995.6 mb 0.06 in1.5 mm 0.00 in0.0 mm 0.69 in17.5 mm
11:00 PM 50.4°F10.2°C 49.6°F9.8°C 97% 36.0 mph S57.9 kmh S 57.0 mph91.7 kmh 29.40 in995.6 mb 0.06 in1.5 mm 0.00 in0.0 mm 0.46 in11.7 mm
11:03 PM 50.4°F10.2°C 49.6°F9.8°C 97% 38.0 mph S61.2 kmh S 57.0 mph91.7 kmh 29.40 in995.6 mb 0.06 in1.5 mm 0.00 in0.0 mm 0.46 in11.7 mm
11:06 PM 50.4°F10.2°C 49.6°F9.8°C 97% 38.0 mph S61.2 kmh S 57.0 mph91.7 kmh 29.40 in995.6 mb 0.06 in1.5 mm 0.00 in0.0 mm 0.46 in11.7 mm
11:09 PM 50.5°F10.3°C 49.6°F9.8°C 97% 38.0 mph S61.2 kmh S 57.0 mph91.7 kmh 29.40 in995.6 mb 0.06 in1.5 mm 0.00 in0.0 mm 0.01 in0.3 mm
11:12 PM 50.5°F10.3°C 49.6°F9.8°C 97% 38.0 mph S61.2 kmh S 55.0 mph88.5 kmh 29.40 in995.6 mb 0.06 in1.5 mm 0.00 in0.0 mm 0.01 in0.3 mm
11:15 PM 50.5°F10.3°C 49.6°F9.8°C 97% 38.0 mph S61.2 kmh S 55.0 mph88.5 kmh 29.40 in995.6 mb 0.06 in1.5 mm 0.00 in0.0 mm 0.02 in0.5 mm
11:18 PM 50.5°F10.3°C 49.6°F9.8°C 97% 37.0 mph S59.5 kmh S 55.0 mph88.5 kmh 29.40 in995.6 mb 0.06 in1.5 mm 0.00 in0.0 mm 0.02 in0.5 mm
11:21 PM 50.5°F10.3°C 49.6°F9.8°C 97% 37.0 mph SSE59.5 kmh SSE 55.0 mph88.5 kmh 29.40 in995.6 mb 0.07 in1.8 mm 0.20 in5.1 mm 0.03 in0.8 mm
11:24 PM 50.5°F10.3°C 49.6°F9.8°C 97% 36.0 mph SSE57.9 kmh SSE 54.0 mph86.9 kmh 29.40 in995.6 mb 0.07 in1.8 mm 0.00 in0.0 mm 0.03 in0.8 mm
11:27 PM 50.5°F10.3°C 49.6°F9.8°C 97% 37.0 mph S59.5 kmh S 54.0 mph86.9 kmh 29.40 in995.6 mb 0.06 in1.5 mm 0.00 in0.0 mm 0.03 in0.8 mm
11:30 PM 50.5°F10.3°C 49.6°F9.8°C 97% 36.0 mph S57.9 kmh S 54.0 mph86.9 kmh 29.40 in995.6 mb 0.07 in1.8 mm 0.20 in5.1 mm 0.04 in1.0 mm
11:33 PM 50.5°F10.3°C 49.6°F9.8°C 97% 36.0 mph S57.9 kmh S 54.0 mph86.9 kmh 29.40 in995.6 mb 0.07 in1.8 mm 0.00 in0.0 mm 0.04 in1.0 mm
11:36 PM 50.5°F10.3°C 49.6°F9.8°C 97% 36.0 mph S57.9 kmh S 54.0 mph86.9 kmh 29.40 in995.6 mb 0.07 in1.8 mm 0.00 in0.0 mm 0.04 in1.0 mm
11:39 PM 50.5°F10.3°C 49.6°F9.8°C 97% 35.0 mph S56.3 kmh S 54.0 mph86.9 kmh 29.40 in995.6 mb 0.06 in1.5 mm 0.00 in0.0 mm 0.04 in1.0 mm
11:42 PM 50.5°F10.3°C 49.6°F9.8°C 97% 34.0 mph S54.7 kmh S 54.0 mph86.9 kmh 29.40 in995.6 mb 0.07 in1.8 mm 0.20 in5.1 mm 0.05 in1.3 mm
11:45 PM 50.5°F10.3°C 49.6°F9.8°C 97% 35.0 mph S56.3 kmh S 54.0 mph86.9 kmh 29.40 in995.6 mb 0.06 in1.5 mm 0.00 in0.0 mm 0.05 in1.3 mm
11:48 PM 50.5°F10.3°C 49.6°F9.8°C 97% 35.0 mph S56.3 kmh S 51.0 mph82.1 kmh 29.40 in995.6 mb 0.06 in1.5 mm 0.00 in0.0 mm 0.05 in1.3 mm
11:51 PM 50.5°F10.3°C 49.6°F9.8°C 97% 36.0 mph S57.9 kmh S 51.0 mph82.1 kmh 29.40 in995.6 mb 0.06 in1.5 mm 0.00 in0.0 mm 0.05 in1.3 mm
11:54 PM 50.5°F10.3°C 49.6°F9.8°C 97% 36.0 mph S57.9 kmh S 51.0 mph82.1 kmh 29.40 in995.6 mb 0.06 in1.5 mm 0.00 in0.0 mm 0.06 in1.5 mm
11:57 PM 50.5°F10.3°C 49.6°F9.8°C 97% 35.0 mph S56.3 kmh S 51.0 mph82.1 kmh 29.40 in995.6 mb 0.06 in1.5 mm 0.00 in0.0 mm 0.06 in1.5 mm